Time,TemperatureF,DewpointF,PressureIn,WindDirection,WindDirectionDegrees,WindSpeedMPH,WindSpeedGustMPH,Humidity,HourlyPrecipIn,Conditions,Clouds,dailyrainin,SoftwareType,DateUTC
2013-02-26 00:00:00,37.8,27.5,30.01,ESE,115,9.2,9.2,66,0.00,,,0.00,WeatherDisplay:10.37,2013-02-26 05:00:00,
2013-02-26 00:05:00,37.9,27.2,30.02,East,87,11.5,11.5,65,0.00,,,0.00,WeatherDisplay:10.37,2013-02-26 05:05:00,
2013-02-26 00:10:00,37.9,27.2,30.01,SE,132,12.7,12.7,65,0.00,,,0.00,WeatherDisplay:10.37,2013-02-26 05:10:00,
2013-02-26 00:15:00,37.7,27.0,30.01,East,80,9.2,9.2,65,0.00,,,0.00,WeatherDisplay:10.37,2013-02-26 05:15:00,
2013-02-26 00:16:00,37.6,26.9,30.01,SE,134,12.7,12.7,65,0.00,,,0.00,WeatherDisplay:10.37,2013-02-26 05:16:00,
2013-02-26 00:20:00,37.5,26.8,30.02,ESE,119,6.9,6.9,65,0.00,,,0.00,WeatherDisplay:10.37,2013-02-26 05:20:00,
2013-02-26 00:21:00,37.5,26.8,30.02,East,85,5.8,5.8,65,0.00,,,0.00,WeatherDisplay:10.37,2013-02-26 05:21:00,
2013-02-26 00:25:00,37.5,26.8,30.01,ESE,113,12.7,12.7,65,0.00,,,0.00,WeatherDisplay:10.37,2013-02-26 05:25:00,
2013-02-26 00:26:00,37.5,26.8,30.01,East,79,11.5,11.5,65,0.00,,,0.00,WeatherDisplay:10.37,2013-02-26 05:26:00,
2013-02-26 00:30:00,37.4,26.7,30.01,ESE,118,8.1,8.1,65,0.00,,,0.00,WeatherDisplay:10.37,2013-02-26 05:30:00,
2013-02-26 00:31:00,37.4,26.7,30.01,SSE,150,9.2,9.2,65,0.00,,,0.00,WeatherDisplay:10.37,2013-02-26 05:31:00,
2013-02-26 00:32:00,37.4,26.7,30.01,ESE,103,9.0,9.0,65,0.00,,,0.00,WeatherDisplay:10.37,2013-02-26 05:32:00,
2013-02-26 00:36:00,37.4,26.7,30.00,East,89,12.7,12.7,65,0.00,,,0.00,WeatherDisplay:10.37,2013-02-26 05:36:00,
2013-02-26 00:37:00,37.4,26.7,30.00,East,79,8.1,8.1,65,0.00,,,0.00,WeatherDisplay:10.37,2013-02-26 05:37:00,
2013-02-26 00:41:00,37.4,26.3,30.00,ENE,74,11.5,11.5,64,0.00,,,0.00,WeatherDisplay:10.37,2013-02-26 05:41:00,
2013-02-26 00:42:00,37.3,26.6,30.00,East,100,11.5,11.5,65,0.00,,,0.00,WeatherDisplay:10.37,2013-02-26 05:42:00,
2013-02-26 00:46:00,37.3,26.2,30.00,ENE,78,12.7,12.7,64,0.00,,,0.00,WeatherDisplay:10.37,2013-02-26 05:46:00,
2013-02-26 00:47:00,37.2,26.1,29.99,ENE,78,12.7,12.7,64,0.00,,,0.00,WeatherDisplay:10.37,2013-02-26 05:47:00,
2013-02-26 00:48:00,37.2,26.1,30.00,East,94,9.2,9.2,64,0.00,,,0.00,WeatherDisplay:10.37,2013-02-26 05:48:00,
2013-02-26 00:51:00,37.1,26.0,30.00,East,87,10.4,10.4,64,0.00,,,0.00,WeatherDisplay:10.37,2013-02-26 05:51:00,
2013-02-26 00:52:00,37.1,26.0,30.00,NNE,33,10.0,10.0,64,0.00,,,0.00,WeatherDisplay:10.37,2013-02-26 05:52:00,
2013-02-26 00:53:00,37.1,26.0,30.00,East,99,12.7,12.7,64,0.00,,,0.00,WeatherDisplay:10.37,2013-02-26 05:53:00,
2013-02-26 00:57:00,37.0,25.9,29.99,SE,125,13.8,13.8,64,0.00,,,0.00,WeatherDisplay:10.37,2013-02-26 05:57:00,
2013-02-26 00:58:00,36.9,25.9,29.99,NE,40,12.7,12.7,64,0.00,,,0.00,WeatherDisplay:10.37,2013-02-26 05:58:00,
2013-02-26 01:02:00,36.9,25.9,29.99,East,89,10.4,10.4,64,0.00,CLR,,0.00,WeatherDisplay:10.37,2013-02-26 06:02:00,
2013-02-26 01:03:00,36.9,25.9,29.99,East,90,6.9,6.9,64,0.00,CLR,,0.00,WeatherDisplay:10.37,2013-02-26 06:03:00,
2013-02-26 01:08:00,36.7,25.7,29.98,ENE,67,11.5,11.5,64,0.00,CLR,,0.00,WeatherDisplay:10.37,2013-02-26 06:08:00,
2013-02-26 01:13:00,36.5,25.8,29.98,ESE,108,11.5,11.5,65,0.00,CLR,,0.00,WeatherDisplay:10.37,2013-02-26 06:13:00,
2013-02-26 01:14:00,36.5,25.8,29.98,East,99,8.1,8.1,65,0.00,CLR,,0.00,WeatherDisplay:10.37,2013-02-26 06:14:00,
2013-02-26 01:18:00,36.3,25.7,29.98,ENE,71,11.5,11.5,65,0.00,CLR,,0.00,WeatherDisplay:10.37,2013-02-26 06:18:00,
2013-02-26 01:19:00,36.3,25.7,29.98,East,94,11.5,11.5,65,0.00,CLR,,0.00,WeatherDisplay:10.37,2013-02-26 06:19:00,
2013-02-26 01:21:00,36.2,25.6,29.98,East,94,11.5,11.5,65,0.00,CLR,,0.00,WeatherDisplay:10.37,2013-02-26 06:21:00,
2013-02-26 01:23:00,36.1,25.5,29.98,ESE,112,6.9,6.9,65,0.00,CLR,,0.00,WeatherDisplay:10.37,2013-02-26 06:23:00,
2013-02-26 01:24:00,36.1,25.5,29.98,ENE,60,6.9,6.9,65,0.00,CLR,,0.00,WeatherDisplay:10.37,2013-02-26 06:24:00,
2013-02-26 01:25:00,36.1,25.5,29.98,East,82,9.2,9.2,65,0.00,CLR,,0.00,WeatherDisplay:10.37,2013-02-26 06:25:00,
2013-02-26 01:26:00,36.1,25.5,29.98,ENE,65,5.0,5.0,65,0.00,CLR,,0.00,WeatherDisplay:10.37,2013-02-26 06:26:00,
2013-02-26 01:28:00,36.1,25.5,29.98,East,101,7.0,7.0,65,0.00,CLR,,0.00,WeatherDisplay:10.37,2013-02-26 06:28:00,
2013-02-26 01:29:00,36.1,25.5,29.98,ESE,105,9.2,9.2,65,0.00,CLR,,0.00,WeatherDisplay:10.37,2013-02-26 06:29:00,
2013-02-26 01:30:00,36.1,25.5,29.98,East,80,6.0,9.0,65,0.00,CLR,,0.00,WeatherDisplay:10.37,2013-02-26 06:30:00,
2013-02-26 01:31:00,36.1,25.5,29.98,NNE,26,6.9,6.9,65,0.00,CLR,,0.00,WeatherDisplay:10.37,2013-02-26 06:31:00,
2013-02-26 01:34:00,36.1,25.5,29.98,NE,46,15.0,15.0,65,0.00,CLR,,0.00,WeatherDisplay:10.37,2013-02-26 06:34:00,
2013-02-26 01:35:00,36.0,25.4,29.98,ENE,78,10.4,10.4,65,0.00,CLR,,0.00,WeatherDisplay:10.37,2013-02-26 06:35:00,
2013-02-26 01:36:00,36.0,25.4,29.98,NE,50,11.5,11.5,65,0.00,CLR,,0.00,WeatherDisplay:10.37,2013-02-26 06:36:00,
2013-02-26 01:39:00,36.0,25.4,29.97,NE,54,13.0,13.0,65,0.00,CLR,,0.00,WeatherDisplay:10.37,2013-02-26 06:39:00,
2013-02-26 01:40:00,36.0,25.4,29.97,ENE,70,12.7,12.7,65,0.00,CLR,,0.00,WeatherDisplay:10.37,2013-02-26 06:40:00,
2013-02-26 01:41:00,36.0,25.4,29.97,ESE,109,12.7,12.7,65,0.00,CLR,,0.00,WeatherDisplay:10.37,2013-02-26 06:41:00,
2013-02-26 01:42:00,35.9,25.3,29.97,East,99,10.0,10.0,65,0.00,CLR,,0.00,WeatherDisplay:10.37,2013-02-26 06:42:00,
2013-02-26 01:44:00,35.9,25.3,29.97,ESE,103,13.8,13.8,65,0.00,CLR,,0.00,WeatherDisplay:10.37,2013-02-26 06:44:00,
2013-02-26 01:45:00,35.9,25.6,29.97,East,94,9.2,9.2,66,0.00,CLR,,0.00,WeatherDisplay:10.37,2013-02-26 06:45:00,
2013-02-26 01:46:00,35.9,25.3,29.97,East,96,9.2,9.2,65,0.00,CLR,,0.00,WeatherDisplay:10.37,2013-02-26 06:46:00,
2013-02-26 01:47:00,35.8,25.2,29.97,ESE,112,11.5,11.5,65,0.00,CLR,,0.00,WeatherDisplay:10.37,2013-02-26 06:47:00,
2013-02-26 01:49:00,35.8,25.2,29.96,ENE,70,11.5,11.5,65,0.00,CLR,,0.00,WeatherDisplay:10.37,2013-02-26 06:49:00,
2013-02-26 01:50:00,35.7,25.1,29.96,NE,54,9.2,9.2,65,0.00,CLR,,0.00,WeatherDisplay:10.37,2013-02-26 06:50:00,
2013-02-26 01:51:00,35.7,25.1,29.96,NE,54,13.8,13.8,65,0.00,CLR,,0.00,WeatherDisplay:10.37,2013-02-26 06:51:00,
2013-02-26 01:52:00,35.7,25.1,29.96,East,82,11.5,11.5,65,0.00,CLR,,0.00,WeatherDisplay:10.37,2013-02-26 06:52:00,
2013-02-26 01:54:00,35.6,25.0,29.96,NE,40,12.7,12.7,65,0.00,CLR,,0.00,WeatherDisplay:10.37,2013-02-26 06:54:00,
2013-02-26 01:55:00,35.6,25.0,29.96,NE,54,12.7,12.7,65,0.00,CLR,,0.00,WeatherDisplay:10.37,2013-02-26 06:55:00,
2013-02-26 01:56:00,35.6,25.0,29.96,ENE,77,12.7,12.7,65,0.00,CLR,,0.00,WeatherDisplay:10.37,2013-02-26 06:56:00,
2013-02-26 01:58:00,35.5,24.9,29.97,ENE,78,11.5,11.5,65,0.00,CLR,,0.00,WeatherDisplay:10.37,2013-02-26 06:58:00,
2013-02-26 02:00:00,35.5,24.9,29.97,East,89,13.8,13.8,65,0.00,CLR,,0.00,WeatherDisplay:10.37,2013-02-26 07:00:00,
2013-02-26 02:01:00,35.5,24.9,29.97,East,101,9.2,9.2,65,0.00,CLR,,0.00,WeatherDisplay:10.37,2013-02-26 07:01:00,
2013-02-26 02:03:00,35.5,24.9,29.97,ENE,64,8.1,8.1,65,0.00,,,0.00,WeatherDisplay:10.37,2013-02-26 07:03:00,
2013-02-26 02:05:00,35.4,24.8,29.97,East,92,11.5,11.5,65,0.00,,,0.00,WeatherDisplay:10.37,2013-02-26 07:05:00,
2013-02-26 02:06:00,35.4,25.2,29.97,ENE,74,6.9,6.9,66,0.00,,,0.00,WeatherDisplay:10.37,2013-02-26 07:06:00,
2013-02-26 02:07:00,35.3,25.1,29.97,East,81,9.2,9.2,66,0.00,,,0.00,WeatherDisplay:10.37,2013-02-26 07:07:00,
2013-02-26 02:08:00,35.3,25.1,29.97,East,91,10.0,10.0,66,0.00,,,0.00,WeatherDisplay:10.37,2013-02-26 07:08:00,
2013-02-26 02:10:00,35.3,24.7,29.97,East,85,11.5,11.5,65,0.00,,,0.00,WeatherDisplay:10.37,2013-02-26 07:10:00,
2013-02-26 02:11:00,35.3,25.1,29.96,ENE,71,10.0,10.0,66,0.00,,,0.00,WeatherDisplay:10.37,2013-02-26 07:11:00,
2013-02-26 02:12:00,35.3,25.1,29.97,ESE,108,10.4,10.4,66,0.00,,,0.00,WeatherDisplay:10.37,2013-02-26 07:12:00,
2013-02-26 02:14:00,35.3,25.1,29.96,ENE,61,11.5,11.5,66,0.00,,,0.00,WeatherDisplay:10.37,2013-02-26 07:14:00,
2013-02-26 02:15:00,35.3,25.1,29.96,NE,42,9.2,9.2,66,0.00,,,0.00,WeatherDisplay:10.37,2013-02-26 07:15:00,
2013-02-26 02:16:00,35.3,25.1,29.96,East,100,9.2,9.2,66,0.00,,,0.00,WeatherDisplay:10.37,2013-02-26 07:16:00,
2013-02-26 02:17:00,35.3,25.1,29.96,East,88,7.0,7.0,66,0.00,,,0.00,WeatherDisplay:10.37,2013-02-26 07:17:00,
2013-02-26 02:19:00,35.3,25.1,29.96,East,79,6.0,6.0,66,0.00,,,0.00,WeatherDisplay:10.37,2013-02-26 07:19:00,
2013-02-26 02:20:00,35.3,25.1,29.96,ENE,73,9.2,9.2,66,0.00,,,0.00,WeatherDisplay:10.37,2013-02-26 07:20:00,
2013-02-26 02:22:00,35.3,25.1,29.96,ESE,108,8.1,8.1,66,0.00,,,0.00,WeatherDisplay:10.37,2013-02-26 07:22:00,
2013-02-26 02:24:00,35.4,25.2,29.95,East,89,8.1,8.1,66,0.00,,,0.00,WeatherDisplay:10.37,2013-02-26 07:24:00,
2013-02-26 02:26:00,35.3,25.1,29.95,East,87,11.0,11.0,66,0.00,,,0.00,WeatherDisplay:10.37,2013-02-26 07:26:00,
2013-02-26 02:27:00,35.4,25.2,29.95,East,93,12.7,12.7,66,0.00,,,0.00,WeatherDisplay:10.37,2013-02-26 07:27:00,
2013-02-26 02:30:00,35.5,25.3,29.95,ESE,102,11.5,11.5,66,0.00,,,0.00,WeatherDisplay:10.37,2013-02-26 07:30:00,
2013-02-26 02:31:00,35.5,25.3,29.95,East,85,10.4,10.4,66,0.00,,,0.00,WeatherDisplay:10.37,2013-02-26 07:31:00,
2013-02-26 02:32:00,35.6,25.4,29.95,East,84,11.5,11.5,66,0.00,,,0.00,WeatherDisplay:10.37,2013-02-26 07:32:00,
2013-02-26 02:33:00,35.6,25.4,29.95,East,90,11.5,11.5,66,0.00,,,0.00,WeatherDisplay:10.37,2013-02-26 07:33:00,
2013-02-26 02:35:00,35.6,25.4,29.95,East,98,10.0,10.0,66,0.00,,,0.00,WeatherDisplay:10.37,2013-02-26 07:35:00,
2013-02-26 02:36:00,35.6,25.4,29.94,ENE,78,11.5,11.5,66,0.00,,,0.00,WeatherDisplay:10.37,2013-02-26 07:36:00,
2013-02-26 02:38:00,35.6,25.4,29.94,East,101,11.5,11.5,66,0.00,,,0.00,WeatherDisplay:10.37,2013-02-26 07:38:00,
2013-02-26 02:39:00,35.7,25.4,29.94,SE,129,10.4,10.4,66,0.00,,,0.00,WeatherDisplay:10.37,2013-02-26 07:39:00,
2013-02-26 02:40:00,35.7,25.4,29.94,East,99,10.4,10.4,66,0.00,,,0.00,WeatherDisplay:10.37,2013-02-26 07:40:00,
2013-02-26 02:41:00,35.7,25.4,29.94,East,84,11.0,11.0,66,0.00,,,0.00,WeatherDisplay:10.37,2013-02-26 07:41:00,
2013-02-26 02:43:00,35.7,25.4,29.94,ESE,115,8.1,8.1,66,0.00,,,0.00,WeatherDisplay:10.37,2013-02-26 07:43:00,
2013-02-26 02:44:00,35.7,25.4,29.94,East,91,11.5,11.5,66,0.00,,,0.00,WeatherDisplay:10.37,2013-02-26 07:44:00,
2013-02-26 02:45:00,35.7,25.8,29.94,East,98,8.1,8.1,67,0.00,,,0.00,WeatherDisplay:10.37,2013-02-26 07:45:00,
2013-02-26 02:47:00,35.7,25.4,29.94,SE,133,5.8,5.8,66,0.00,,,0.00,WeatherDisplay:10.37,2013-02-26 07:47:00,
2013-02-26 02:48:00,35.6,25.4,29.94,ENE,58,10.0,10.0,66,0.00,,,0.00,WeatherDisplay:10.37,2013-02-26 07:48:00,
2013-02-26 02:49:00,35.6,25.4,29.94,ESE,105,10.4,10.4,66,0.00,,,0.00,WeatherDisplay:10.37,2013-02-26 07:49:00,
2013-02-26 02:50:00,35.6,25.4,29.93,East,96,12.7,12.7,66,0.00,,,0.00,WeatherDisplay:10.37,2013-02-26 07:50:00,
2013-02-26 02:52:00,35.7,25.4,29.93,East,94,11.0,11.0,66,0.00,,,0.00,WeatherDisplay:10.37,2013-02-26 07:52:00,
2013-02-26 02:53:00,35.7,25.4,29.93,NE,46,13.8,13.8,66,0.00,,,0.00,WeatherDisplay:10.37,2013-02-26 07:53:00,
2013-02-26 02:54:00,35.7,25.4,29.93,ESE,111,13.8,13.8,66,0.00,,,0.00,WeatherDisplay:10.37,2013-02-26 07:54:00,
2013-02-26 02:56:00,35.7,25.4,29.93,ESE,106,10.4,10.4,66,0.00,,,0.00,WeatherDisplay:10.37,2013-02-26 07:56:00,
2013-02-26 02:57:00,35.7,25.4,29.93,ENE,78,11.5,11.5,66,0.00,,,0.00,WeatherDisplay:10.37,2013-02-26 07:57:00,
2013-02-26 02:59:00,35.7,25.1,29.93,East,93,11.5,11.5,65,0.00,,,0.00,WeatherDisplay:10.37,2013-02-26 07:59:00,
2013-02-26 03:00:00,35.7,25.1,29.93,East,98,15.0,15.0,65,0.00,,,0.00,WeatherDisplay:10.37,2013-02-26 08:00:00,
2013-02-26 03:01:00,35.7,25.1,29.93,SE,139,15.0,15.0,65,0.00,,,0.00,WeatherDisplay:10.37,2013-02-26 08:01:00,
2013-02-26 03:02:00,35.7,25.1,29.93,ENE,78,12.7,12.7,65,0.00,,,0.00,WeatherDisplay:10.37,2013-02-26 08:02:00,
2013-02-26 03:04:00,35.6,25.0,29.93,East,99,10.4,10.4,65,0.00,,,0.00,WeatherDisplay:10.37,2013-02-26 08:04:00,
2013-02-26 03:06:00,35.5,24.9,29.93,East,89,12.7,12.7,65,0.00,,,0.00,WeatherDisplay:10.37,2013-02-26 08:06:00,
2013-02-26 03:07:00,35.5,24.9,29.93,East,85,12.7,12.7,65,0.00,,,0.00,WeatherDisplay:10.37,2013-02-26 08:07:00,
2013-02-26 03:09:00,35.5,24.9,29.93,East,94,13.8,13.8,65,0.00,,,0.00,WeatherDisplay:10.37,2013-02-26 08:09:00,
2013-02-26 03:11:00,35.5,24.9,29.93,East,79,12.7,12.7,65,0.00,,,0.00,WeatherDisplay:10.37,2013-02-26 08:11:00,
2013-02-26 03:12:00,35.5,24.9,29.93,ESE,105,18.4,18.4,65,0.00,,,0.00,WeatherDisplay:10.37,2013-02-26 08:12:00,
2013-02-26 03:14:00,35.4,24.8,29.93,East,96,13.8,13.8,65,0.00,,,0.00,WeatherDisplay:10.37,2013-02-26 08:14:00,
2013-02-26 03:16:00,35.5,25.3,29.93,East,101,12.7,12.7,66,0.00,,,0.00,WeatherDisplay:10.37,2013-02-26 08:16:00,
2013-02-26 03:17:00,35.5,25.3,29.93,East,83,11.0,11.0,66,0.00,,,0.00,WeatherDisplay:10.37,2013-02-26 08:17:00,
2013-02-26 03:18:00,35.5,25.3,29.93,East,89,10.4,10.4,66,0.00,,,0.00,WeatherDisplay:10.37,2013-02-26 08:18:00,
2013-02-26 03:20:00,35.5,25.3,29.93,East,95,9.0,16.0,66,0.00,,,0.00,WeatherDisplay:10.37,2013-02-26 08:20:00,
2013-02-26 03:21:00,35.4,25.2,29.93,ESE,102,6.9,6.9,66,0.00,,,0.00,WeatherDisplay:10.37,2013-02-26 08:21:00,
2013-02-26 03:22:00,35.4,25.2,29.93,East,82,9.2,9.2,66,0.00,,,0.00,WeatherDisplay:10.37,2013-02-26 08:22:00,
2013-02-26 03:23:00,35.4,25.2,29.93,ESE,103,5.8,5.8,66,0.00,,,0.00,WeatherDisplay:10.37,2013-02-26 08:23:00,
2013-02-26 03:25:00,35.3,25.1,29.93,East,94,6.0,9.0,66,0.00,,,0.00,WeatherDisplay:10.37,2013-02-26 08:25:00,
2013-02-26 03:26:00,35.3,25.1,29.93,East,85,11.5,11.5,66,0.00,,,0.00,WeatherDisplay:10.37,2013-02-26 08:26:00,
2013-02-26 03:27:00,35.2,25.0,29.92,ESE,105,11.5,11.5,66,0.00,,,0.00,WeatherDisplay:10.37,2013-02-26 08:27:00,
2013-02-26 03:28:00,35.2,25.0,29.92,East,90,11.5,11.5,66,0.00,,,0.00,WeatherDisplay:10.37,2013-02-26 08:28:00,
2013-02-26 03:30:00,35.2,25.0,29.92,East,93,10.0,15.0,66,0.00,,,0.00,WeatherDisplay:10.37,2013-02-26 08:30:00,
2013-02-26 03:31:00,35.1,24.9,29.92,ESE,112,15.0,15.0,66,0.00,,,0.00,WeatherDisplay:10.37,2013-02-26 08:31:00,
2013-02-26 03:32:00,35.1,24.9,29.92,SE,137,12.7,12.7,66,0.00,,,0.00,WeatherDisplay:10.37,2013-02-26 08:32:00,
2013-02-26 03:33:00,35.1,25.2,29.92,East,98,12.0,12.0,67,0.00,,,0.00,WeatherDisplay:10.37,2013-02-26 08:33:00,
2013-02-26 03:35:00,35.1,25.2,29.92,East,96,8.0,15.0,67,0.00,,,0.00,WeatherDisplay:10.37,2013-02-26 08:35:00,
2013-02-26 03:37:00,35.1,24.9,29.92,East,84,15.0,15.0,66,0.00,,,0.00,WeatherDisplay:10.37,2013-02-26 08:37:00,
2013-02-26 03:38:00,35.1,24.9,29.92,East,94,14.0,14.0,66,0.00,,,0.00,WeatherDisplay:10.37,2013-02-26 08:38:00,
2013-02-26 03:40:00,35.1,24.9,29.92,East,89,16.1,16.1,66,0.00,,,0.00,WeatherDisplay:10.37,2013-02-26 08:40:00,
2013-02-26 03:42:00,35.1,25.2,29.92,East,84,10.4,10.4,67,0.00,,,0.00,WeatherDisplay:10.37,2013-02-26 08:42:00,
2013-02-26 03:44:00,35.2,25.3,29.92,NE,46,9.2,9.2,67,0.00,,,0.00,WeatherDisplay:10.37,2013-02-26 08:44:00,
2013-02-26 03:45:00,35.2,25.3,29.92,East,88,11.5,11.5,67,0.00,,,0.00,WeatherDisplay:10.37,2013-02-26 08:45:00,
2013-02-26 03:47:00,35.2,25.3,29.92,SE,130,13.8,13.8,67,0.00,,,0.00,WeatherDisplay:10.37,2013-02-26 08:47:00,
2013-02-26 03:49:00,35.3,25.4,29.92,East,88,10.4,10.4,67,0.00,,,0.00,WeatherDisplay:10.37,2013-02-26 08:49:00,
2013-02-26 03:50:00,35.3,25.4,29.91,ENE,69,11.5,11.5,67,0.00,,,0.00,WeatherDisplay:10.37,2013-02-26 08:50:00,
2013-02-26 03:52:00,35.3,25.8,29.91,ESE,102,11.5,11.5,68,0.00,,,0.00,WeatherDisplay:10.37,2013-02-26 08:52:00,
2013-02-26 03:54:00,35.4,25.9,29.91,ENE,77,11.5,11.5,68,0.00,,,0.00,WeatherDisplay:10.37,2013-02-26 08:54:00,
2013-02-26 03:55:00,35.4,25.9,29.90,ESE,104,11.5,11.5,68,0.00,,,0.00,WeatherDisplay:10.37,2013-02-26 08:55:00,
2013-02-26 03:57:00,35.5,26.0,29.90,ESE,105,19.6,19.6,68,0.00,,,0.00,WeatherDisplay:10.37,2013-02-26 08:57:00,
2013-02-26 03:59:00,35.6,26.1,29.90,East,90,16.1,16.1,68,0.00,,,0.00,WeatherDisplay:10.37,2013-02-26 08:59:00,
2013-02-26 04:01:00,35.6,26.1,29.90,East,87,15.0,15.0,68,0.00,,,0.00,WeatherDisplay:10.37,2013-02-26 09:01:00,
2013-02-26 04:02:00,35.6,26.1,29.91,East,91,11.5,11.5,68,0.00,,,0.00,WeatherDisplay:10.37,2013-02-26 09:02:00,
2013-02-26 04:04:00,35.6,26.1,29.91,ESE,106,15.0,15.0,68,0.00,,,0.00,WeatherDisplay:10.37,2013-02-26 09:04:00,
2013-02-26 04:05:00,35.6,26.1,29.91,East,99,8.0,16.0,68,0.00,,,0.00,WeatherDisplay:10.37,2013-02-26 09:05:00,
2013-02-26 04:06:00,35.5,26.0,29.90,East,94,15.0,15.0,68,0.00,,,0.00,WeatherDisplay:10.37,2013-02-26 09:06:00,
2013-02-26 04:08:00,35.5,26.0,29.90,East,92,17.3,17.3,68,0.00,,,0.00,WeatherDisplay:10.37,2013-02-26 09:08:00,
2013-02-26 04:09:00,35.5,26.0,29.90,ESE,106,17.0,17.0,68,0.00,,,0.00,WeatherDisplay:10.37,2013-02-26 09:09:00,
2013-02-26 04:10:00,35.4,25.9,29.90,ESE,112,17.3,17.3,68,0.00,,,0.00,WeatherDisplay:10.37,2013-02-26 09:10:00,
2013-02-26 04:12:00,35.3,25.8,29.90,ENE,78,11.5,11.5,68,0.00,,,0.00,WeatherDisplay:10.37,2013-02-26 09:12:00,
2013-02-26 04:14:00,35.2,25.7,29.90,East,98,12.7,12.7,68,0.00,,,0.00,WeatherDisplay:10.37,2013-02-26 09:14:00,
2013-02-26 04:15:00,35.2,25.7,29.90,East,94,7.0,14.0,68,0.00,,,0.00,WeatherDisplay:10.37,2013-02-26 09:15:00,
2013-02-26 04:17:00,35.1,25.6,29.91,East,89,8.1,8.1,68,0.00,,,0.00,WeatherDisplay:10.37,2013-02-26 09:17:00,
2013-02-26 04:19:00,35.1,25.9,29.91,NE,49,6.9,6.9,69,0.00,,,0.00,WeatherDisplay:10.37,2013-02-26 09:19:00,
2013-02-26 04:20:00,35.0,25.9,29.91,East,89,13.8,13.8,69,0.00,,,0.00,WeatherDisplay:10.37,2013-02-26 09:20:00,
2013-02-26 04:21:00,35.0,25.9,29.91,NE,54,9.0,9.0,69,0.00,,,0.00,WeatherDisplay:10.37,2013-02-26 09:21:00,
2013-02-26 04:23:00,34.9,25.8,29.91,NNE,15,12.7,12.7,69,0.00,,,0.00,WeatherDisplay:10.37,2013-02-26 09:23:00,
2013-02-26 04:24:00,34.9,25.8,29.91,ENE,77,12.7,12.7,69,0.00,,,0.00,WeatherDisplay:10.37,2013-02-26 09:24:00,
2013-02-26 04:25:00,34.9,25.8,29.91,ESE,108,11.5,11.5,69,0.00,,,0.00,WeatherDisplay:10.37,2013-02-26 09:25:00,
2013-02-26 04:26:00,34.9,25.8,29.91,East,80,10.4,10.4,69,0.00,,,0.00,WeatherDisplay:10.37,2013-02-26 09:26:00,
2013-02-26 04:28:00,34.9,26.1,29.91,ESE,102,10.4,10.4,70,0.00,,,0.00,WeatherDisplay:10.37,2013-02-26 09:28:00,
2013-02-26 04:29:00,34.9,26.1,29.92,ENE,65,9.2,9.2,70,0.00,,,0.00,WeatherDisplay:10.37,2013-02-26 09:29:00,
2013-02-26 04:31:00,34.9,26.1,29.92,ENE,77,11.5,11.5,70,0.00,,,0.00,WeatherDisplay:10.37,2013-02-26 09:31:00,
2013-02-26 04:33:00,34.9,26.1,29.92,East,94,13.8,13.8,70,0.00,,,0.00,WeatherDisplay:10.37,2013-02-26 09:33:00,
2013-02-26 04:35:00,34.9,26.1,29.92,NE,56,11.0,11.0,70,0.00,,,0.00,WeatherDisplay:10.37,2013-02-26 09:35:00,
2013-02-26 04:36:00,34.9,26.1,29.91,East,93,13.8,13.8,70,0.00,,,0.00,WeatherDisplay:10.37,2013-02-26 09:36:00,
2013-02-26 04:38:00,35.0,26.2,29.92,East,88,8.1,8.1,70,0.00,,,0.00,WeatherDisplay:10.37,2013-02-26 09:38:00,
2013-02-26 04:40:00,35.0,26.5,29.92,NE,46,6.9,6.9,71,0.00,,,0.00,WeatherDisplay:10.37,2013-02-26 09:40:00,
2013-02-26 04:41:00,35.0,26.5,29.92,East,82,9.2,9.2,71,0.00,,,0.00,WeatherDisplay:10.37,2013-02-26 09:41:00,
2013-02-26 04:43:00,35.1,26.6,29.92,East,87,11.5,11.5,71,0.00,,,0.00,WeatherDisplay:10.37,2013-02-26 09:43:00,
2013-02-26 04:45:00,35.1,26.6,29.92,SE,131,11.5,11.5,71,0.00,,,0.00,WeatherDisplay:10.37,2013-02-26 09:45:00,
2013-02-26 04:46:00,35.1,26.6,29.92,East,91,11.5,11.5,71,0.00,,,0.00,WeatherDisplay:10.37,2013-02-26 09:46:00,
2013-02-26 04:48:00,35.1,26.6,29.91,ESE,108,11.5,11.5,71,0.00,,,0.00,WeatherDisplay:10.37,2013-02-26 09:48:00,
2013-02-26 04:50:00,35.1,26.6,29.91,East,80,11.5,11.5,71,0.00,,,0.00,WeatherDisplay:10.37,2013-02-26 09:50:00,
2013-02-26 04:51:00,35.2,26.7,29.91,East,84,11.5,11.5,71,0.00,,,0.00,WeatherDisplay:10.37,2013-02-26 09:51:00,
2013-02-26 04:54:00,35.2,27.1,29.91,East,81,8.1,8.1,72,0.00,,,0.00,WeatherDisplay:10.37,2013-02-26 09:54:00,
2013-02-26 04:55:00,35.2,27.1,29.91,ENE,74,12.7,12.7,72,0.00,,,0.00,WeatherDisplay:10.37,2013-02-26 09:55:00,
2013-02-26 04:56:00,35.2,27.1,29.91,East,82,11.5,11.5,72,0.00,,,0.00,WeatherDisplay:10.37,2013-02-26 09:56:00,
2013-02-26 04:57:00,35.2,27.1,29.90,ENE,69,12.7,12.7,72,0.00,,,0.00,WeatherDisplay:10.37,2013-02-26 09:57:00,
2013-02-26 04:59:00,35.3,27.2,29.90,East,96,11.5,11.5,72,0.00,,,0.00,WeatherDisplay:10.37,2013-02-26 09:59:00,
2013-02-26 05:01:00,35.2,26.7,29.90,ENE,73,10.4,10.4,71,0.00,,,0.00,WeatherDisplay:10.37,2013-02-26 10:01:00,
2013-02-26 05:02:00,35.2,27.1,29.90,East,94,6.9,6.9,72,0.00,,,0.00,WeatherDisplay:10.37,2013-02-26 10:02:00,
2013-02-26 05:04:00,35.2,26.7,29.90,East,99,9.2,9.2,71,0.00,,,0.00,WeatherDisplay:10.37,2013-02-26 10:04:00,
2013-02-26 05:06:00,35.1,27.0,29.90,East,98,11.5,11.5,72,0.00,,,0.00,WeatherDisplay:10.37,2013-02-26 10:06:00,
2013-02-26 05:07:00,35.1,27.0,29.89,ENE,65,11.5,11.5,72,0.00,,,0.00,WeatherDisplay:10.37,2013-02-26 10:07:00,
2013-02-26 05:10:00,35.1,27.0,29.90,East,84,16.1,16.1,72,0.00,,,0.00,WeatherDisplay:10.37,2013-02-26 10:10:00,
2013-02-26 05:12:00,35.0,27.2,29.90,ENE,73,9.0,9.0,73,0.00,,,0.00,WeatherDisplay:10.37,2013-02-26 10:12:00,
2013-02-26 05:15:00,35.1,27.3,29.90,East,93,10.4,10.4,73,0.00,,,0.00,WeatherDisplay:10.37,2013-02-26 10:15:00,
2013-02-26 05:17:00,35.1,27.6,29.90,ENE,59,11.5,11.5,74,0.00,,,0.00,WeatherDisplay:10.37,2013-02-26 10:17:00,
2013-02-26 05:18:00,35.1,27.3,29.90,ENE,64,11.5,11.5,73,0.00,,,0.00,WeatherDisplay:10.37,2013-02-26 10:18:00,
2013-02-26 05:20:00,35.1,27.6,29.90,East,94,11.5,11.5,74,0.00,,,0.00,WeatherDisplay:10.37,2013-02-26 10:20:00,
2013-02-26 05:22:00,35.1,27.6,29.90,ESE,109,10.4,10.4,74,0.00,,,0.00,WeatherDisplay:10.37,2013-02-26 10:22:00,
2013-02-26 05:23:00,35.1,27.6,29.91,East,89,11.5,11.5,74,0.00,,,0.00,WeatherDisplay:10.37,2013-02-26 10:23:00,
2013-02-26 05:25:00,35.1,27.6,29.91,East,79,9.2,9.2,74,0.00,,,0.00,WeatherDisplay:10.37,2013-02-26 10:25:00,
2013-02-26 05:27:00,35.1,27.6,29.91,NE,54,6.9,6.9,74,0.00,,,0.00,WeatherDisplay:10.37,2013-02-26 10:27:00,
2013-02-26 05:28:00,35.1,27.6,29.91,East,84,6.9,6.9,74,0.00,,,0.00,WeatherDisplay:10.37,2013-02-26 10:28:00,
2013-02-26 05:30:00,35.1,28.0,29.91,ENE,73,6.0,6.0,75,0.00,,,0.00,WeatherDisplay:10.37,2013-02-26 10:30:00,
2013-02-26 05:32:00,35.2,28.4,29.91,East,91,6.0,6.0,76,0.00,,,0.00,WeatherDisplay:10.37,2013-02-26 10:32:00,
2013-02-26 05:33:00,35.2,28.7,29.91,NE,39,5.8,5.8,77,0.00,,,0.00,WeatherDisplay:10.37,2013-02-26 10:33:00,
2013-02-26 05:35:00,35.2,29.0,29.90,East,82,10.0,10.0,78,0.00,,,0.00,WeatherDisplay:10.37,2013-02-26 10:35:00,
2013-02-26 05:37:00,35.1,28.9,29.90,East,88,12.0,12.0,78,0.01,RA,,0.01,WeatherDisplay:10.37,2013-02-26 10:37:00,
2013-02-26 05:38:00,35.0,29.1,29.90,ENE,74,13.8,13.8,79,0.01,RA,,0.01,WeatherDisplay:10.37,2013-02-26 10:38:00,
2013-02-26 05:40:00,34.8,29.3,29.89,East,94,10.4,10.4,80,0.01,RA,,0.01,WeatherDisplay:10.37,2013-02-26 10:40:00,
2013-02-26 05:42:00,34.6,29.1,29.89,East,89,6.9,6.9,80,0.01,RA,,0.01,WeatherDisplay:10.37,2013-02-26 10:42:00,
2013-02-26 05:43:00,34.5,29.3,29.89,East,92,8.1,8.1,81,0.01,RA,,0.02,WeatherDisplay:10.37,2013-02-26 10:43:00,
2013-02-26 05:45:00,34.4,29.5,29.89,East,98,10.4,10.4,82,0.02,RA,,0.02,WeatherDisplay:10.37,2013-02-26 10:45:00,
2013-02-26 05:47:00,34.3,29.4,29.88,East,84,11.5,11.5,82,0.02,RA,,0.02,WeatherDisplay:10.37,2013-02-26 10:47:00,
2013-02-26 05:49:00,34.3,29.7,29.88,ENE,68,9.0,9.0,83,0.02,RA,,0.02,WeatherDisplay:10.37,2013-02-26 10:49:00,
2013-02-26 05:50:00,34.3,29.7,29.88,East,82,11.5,11.5,83,0.02,RA,,0.02,WeatherDisplay:10.37,2013-02-26 10:50:00,
2013-02-26 05:52:00,34.3,29.7,29.88,SSE,160,8.1,8.1,83,0.02,RA,,0.02,WeatherDisplay:10.37,2013-02-26 10:52:00,
2013-02-26 05:54:00,34.3,30.0,29.88,East,98,11.5,11.5,84,0.02,,,0.02,WeatherDisplay:10.37,2013-02-26 10:54:00,
2013-02-26 05:55:00,34.4,30.0,29.88,East,92,7.0,13.0,84,0.00,,,0.02,WeatherDisplay:10.37,2013-02-26 10:55:00,
2013-02-26 05:56:00,34.4,30.1,29.88,East,87,9.2,9.2,84,0.02,,,0.02,WeatherDisplay:10.37,2013-02-26 10:56:00,
2013-02-26 05:57:00,34.4,30.1,29.88,East,87,8.1,8.1,84,0.02,,,0.03,WeatherDisplay:10.37,2013-02-26 10:57:00,
2013-02-26 05:59:00,34.5,30.2,29.88,East,90,14.0,14.0,84,0.03,RA,,0.03,WeatherDisplay:10.37,2013-02-26 10:59:00,
2013-02-26 06:00:00,34.5,30.2,29.88,East,96,15.0,15.0,84,0.03,RA,,0.03,WeatherDisplay:10.37,2013-02-26 11:00:00,
2013-02-26 06:02:00,34.5,30.2,29.88,East,85,8.1,8.1,84,0.03,RA,,0.03,WeatherDisplay:10.37,2013-02-26 11:02:00,
2013-02-26 06:04:00,34.4,30.4,29.88,ENE,74,9.2,9.2,85,0.03,RA,,0.03,WeatherDisplay:10.37,2013-02-26 11:04:00,
2013-02-26 06:05:00,34.3,30.3,29.88,ESE,105,12.7,12.7,85,0.03,RA,,0.03,WeatherDisplay:10.37,2013-02-26 11:05:00,
2013-02-26 06:07:00,34.3,30.3,29.88,East,101,10.4,10.4,85,0.03,RA,,0.03,WeatherDisplay:10.37,2013-02-26 11:07:00,
2013-02-26 06:08:00,34.3,30.5,29.88,East,94,7.0,7.0,86,0.03,,,0.03,WeatherDisplay:10.37,2013-02-26 11:08:00,
2013-02-26 06:09:00,34.3,30.5,29.88,East,87,10.4,10.4,86,0.03,,,0.03,WeatherDisplay:10.37,2013-02-26 11:09:00,
2013-02-26 06:10:00,34.3,30.5,29.88,East,79,15.0,15.0,86,0.03,,,0.03,WeatherDisplay:10.37,2013-02-26 11:10:00,
2013-02-26 06:12:00,34.3,30.5,29.88,East,96,15.0,15.0,86,0.03,,,0.03,WeatherDisplay:10.37,2013-02-26 11:12:00,
2013-02-26 06:13:00,34.3,30.5,29.88,ESE,122,16.1,16.1,86,0.03,,,0.03,WeatherDisplay:10.37,2013-02-26 11:13:00,
2013-02-26 06:15:00,34.2,30.2,29.87,East,79,16.1,16.1,85,0.03,,,0.03,WeatherDisplay:10.37,2013-02-26 11:15:00,
2013-02-26 06:17:00,34.2,30.4,29.86,North,5,9.2,9.2,86,0.03,,,0.03,WeatherDisplay:10.37,2013-02-26 11:17:00,
2013-02-26 06:18:00,34.1,30.4,29.87,SE,125,9.2,9.2,86,0.03,,,0.03,WeatherDisplay:10.37,2013-02-26 11:18:00,
2013-02-26 06:20:00,34.1,30.4,29.87,East,92,11.5,11.5,86,0.03,,,0.03,WeatherDisplay:10.37,2013-02-26 11:20:00,
2013-02-26 06:23:00,34.0,30.5,29.87,East,94,12.7,12.7,87,0.03,,,0.03,WeatherDisplay:10.37,2013-02-26 11:23:00,
2013-02-26 06:25:00,34.0,30.5,29.87,East,92,11.5,11.5,87,0.03,,,0.03,WeatherDisplay:10.37,2013-02-26 11:25:00,
2013-02-26 06:26:00,34.0,30.5,29.87,East,90,11.5,11.5,87,0.03,,,0.03,WeatherDisplay:10.37,2013-02-26 11:26:00,
2013-02-26 06:28:00,33.9,30.7,29.87,East,99,10.4,10.4,88,0.03,,,0.03,WeatherDisplay:10.37,2013-02-26 11:28:00,
2013-02-26 06:29:00,33.9,30.7,29.87,SSE,147,10.4,10.4,88,0.03,,,0.03,WeatherDisplay:10.37,2013-02-26 11:29:00,
2013-02-26 06:30:00,33.9,30.7,29.87,East,85,9.2,9.2,88,0.03,,,0.03,WeatherDisplay:10.37,2013-02-26 11:30:00,
2013-02-26 06:31:00,33.9,30.7,29.87,ENE,73,9.2,9.2,88,0.03,,,0.03,WeatherDisplay:10.37,2013-02-26 11:31:00,
2013-02-26 06:34:00,33.8,30.6,29.86,East,96,12.0,12.0,88,0.03,,,0.03,WeatherDisplay:10.37,2013-02-26 11:34:00,
2013-02-26 06:35:00,33.7,30.5,29.86,East,92,11.5,11.5,88,0.03,,,0.03,WeatherDisplay:10.37,2013-02-26 11:35:00,
2013-02-26 06:36:00,33.7,30.5,29.86,East,93,8.1,8.1,88,0.03,,,0.03,WeatherDisplay:10.37,2013-02-26 11:36:00,
2013-02-26 06:39:00,33.6,30.4,29.85,East,89,11.5,11.5,88,0.02,,,0.04,WeatherDisplay:10.37,2013-02-26 11:39:00,
2013-02-26 06:42:00,33.6,30.4,29.85,SE,133,11.5,11.5,88,0.03,RA,,0.04,WeatherDisplay:10.37,2013-02-26 11:42:00,
2013-02-26 06:44:00,33.6,30.7,29.85,East,91,10.4,10.4,89,0.02,RA,,0.04,WeatherDisplay:10.37,2013-02-26 11:44:00,
2013-02-26 06:45:00,33.6,30.7,29.85,East,95,8.0,14.0,89,0.00,RA,,0.04,WeatherDisplay:10.37,2013-02-26 11:45:00,
2013-02-26 06:47:00,33.6,30.7,29.85,ESE,112,9.2,9.2,89,0.02,RA,,0.04,WeatherDisplay:10.37,2013-02-26 11:47:00,
2013-02-26 06:50:00,33.6,30.7,29.84,East,96,5.0,9.0,89,0.00,,,0.04,WeatherDisplay:10.37,2013-02-26 11:50:00,
2013-02-26 06:52:00,33.6,30.7,29.84,East,81,9.2,9.2,89,0.02,,,0.04,WeatherDisplay:10.37,2013-02-26 11:52:00,
2013-02-26 06:55:00,33.7,30.8,29.85,East,95,7.0,12.0,89,0.00,,,0.04,WeatherDisplay:10.37,2013-02-26 11:55:00,
2013-02-26 06:57:00,33.7,30.8,29.85,East,99,9.2,9.2,89,0.02,,,0.05,WeatherDisplay:10.37,2013-02-26 11:57:00,
2013-02-26 07:00:00,33.8,30.9,29.85,ENE,70,6.9,6.9,89,0.02,RA,,0.05,WeatherDisplay:10.37,2013-02-26 12:00:00,
2013-02-26 07:02:00,33.9,31.0,29.85,ENE,78,11.5,11.5,89,0.02,RA,,0.05,WeatherDisplay:10.37,2013-02-26 12:02:00,
2013-02-26 07:03:00,33.9,31.0,29.86,East,98,9.2,9.2,89,0.02,RA,,0.05,WeatherDisplay:10.37,2013-02-26 12:03:00,
2013-02-26 07:05:00,34.0,31.1,29.85,East,84,8.1,8.1,89,0.02,RA,,0.05,WeatherDisplay:10.37,2013-02-26 12:05:00,
2013-02-26 07:06:00,34.0,31.1,29.85,East,101,11.5,11.5,89,0.02,RA,,0.05,WeatherDisplay:10.37,2013-02-26 12:06:00,
2013-02-26 07:08:00,34.1,31.2,29.85,ESE,105,11.5,11.5,89,0.02,RA,,0.05,WeatherDisplay:10.37,2013-02-26 12:08:00,
2013-02-26 07:10:00,34.1,31.2,29.85,SSE,167,8.1,8.1,89,0.02,,,0.05,WeatherDisplay:10.37,2013-02-26 12:10:00,
2013-02-26 07:11:00,34.1,31.2,29.85,East,98,6.9,6.9,89,0.02,,,0.05,WeatherDisplay:10.37,2013-02-26 12:11:00,
2013-02-26 07:13:00,34.1,31.2,29.85,East,82,6.9,6.9,89,0.03,RA,,0.06,WeatherDisplay:10.37,2013-02-26 12:13:00,
2013-02-26 07:15:00,34.1,31.2,29.85,East,80,10.4,10.4,89,0.03,RA,,0.06,WeatherDisplay:10.37,2013-02-26 12:15:00,
2013-02-26 07:17:00,34.1,31.2,29.85,SE,139,10.4,10.4,89,0.03,RA,,0.06,WeatherDisplay:10.37,2013-02-26 12:17:00,
2013-02-26 07:18:00,34.1,31.2,29.85,East,87,11.0,11.0,89,0.03,RA,,0.06,WeatherDisplay:10.37,2013-02-26 12:18:00,
2013-02-26 07:19:00,34.1,31.2,29.85,ENE,77,11.5,11.5,89,0.03,RA,,0.06,WeatherDisplay:10.37,2013-02-26 12:19:00,
2013-02-26 07:20:00,34.1,31.5,29.85,ENE,77,9.2,9.2,90,0.03,RA,,0.06,WeatherDisplay:10.37,2013-02-26 12:20:00,
2013-02-26 07:22:00,34.1,31.5,29.84,ENE,74,10.4,10.4,90,0.03,RA,,0.06,WeatherDisplay:10.37,2013-02-26 12:22:00,
2013-02-26 07:24:00,34.2,31.6,29.84,East,88,9.2,9.2,90,0.04,RA,,0.07,WeatherDisplay:10.37,2013-02-26 12:24:00,
2013-02-26 07:25:00,34.3,31.7,29.84,East,89,10.4,10.4,90,0.04,RA,,0.07,WeatherDisplay:10.37,2013-02-26 12:25:00,
2013-02-26 07:27:00,34.4,32.0,29.83,East,83,10.4,10.4,91,0.04,RA,,0.07,WeatherDisplay:10.37,2013-02-26 12:27:00,
2013-02-26 07:29:00,34.4,32.0,29.83,East,94,11.5,11.5,91,0.04,RA,,0.07,WeatherDisplay:10.37,2013-02-26 12:29:00,
2013-02-26 07:31:00,34.4,32.0,29.82,ESE,108,10.4,10.4,91,0.04,RA,,0.07,WeatherDisplay:10.37,2013-02-26 12:31:00,
2013-02-26 07:32:00,34.5,32.1,29.83,East,86,9.2,9.2,91,0.04,RA,,0.07,WeatherDisplay:10.37,2013-02-26 12:32:00,
2013-02-26 07:34:00,34.5,32.1,29.83,East,99,10.4,10.4,91,0.05,RA,,0.08,WeatherDisplay:10.37,2013-02-26 12:34:00,
2013-02-26 07:36:00,34.5,32.1,29.83,ESE,116,10.4,10.4,91,0.05,RA,,0.08,WeatherDisplay:10.37,2013-02-26 12:36:00,
2013-02-26 07:37:00,34.5,32.1,29.83,East,95,11.5,11.5,91,0.05,RA,,0.08,WeatherDisplay:10.37,2013-02-26 12:37:00,
2013-02-26 07:39:00,34.5,32.1,29.83,East,82,8.1,8.1,91,0.04,RA,,0.08,WeatherDisplay:10.37,2013-02-26 12:39:00,
2013-02-26 07:40:00,34.5,32.1,29.83,East,93,11.0,11.0,91,0.04,RA,,0.08,WeatherDisplay:10.37,2013-02-26 12:40:00,
2013-02-26 07:41:00,34.5,32.1,29.83,East,101,11.5,11.5,91,0.05,RA,,0.09,WeatherDisplay:10.37,2013-02-26 12:41:00,
2013-02-26 07:43:00,34.4,32.0,29.82,East,85,10.4,10.4,91,0.05,RA,,0.09,WeatherDisplay:10.37,2013-02-26 12:43:00,
2013-02-26 07:44:00,34.4,32.0,29.82,ESE,110,9.2,9.2,91,0.05,RA,,0.09,WeatherDisplay:10.37,2013-02-26 12:44:00,
2013-02-26 07:45:00,34.4,32.0,29.82,SE,137,8.1,8.1,91,0.05,RA,,0.09,WeatherDisplay:10.37,2013-02-26 12:45:00,
2013-02-26 07:46:00,34.4,32.0,29.81,SE,139,8.1,8.1,91,0.05,RA,,0.09,WeatherDisplay:10.37,2013-02-26 12:46:00,
2013-02-26 07:48:00,34.4,32.0,29.80,East,94,12.7,12.7,91,0.05,RA,,0.09,WeatherDisplay:10.37,2013-02-26 12:48:00,
2013-02-26 07:50:00,34.4,32.0,29.80,East,97,7.0,13.0,91,0.00,RA,,0.09,WeatherDisplay:10.37,2013-02-26 12:50:00,
2013-02-26 07:52:00,34.7,32.6,29.80,East,81,12.0,12.0,92,0.06,RA,,0.10,WeatherDisplay:10.37,2013-02-26 12:52:00,
2013-02-26 07:54:00,35.0,32.9,29.80,East,92,17.3,17.3,92,0.06,RA,,0.10,WeatherDisplay:10.37,2013-02-26 12:54:00,
2013-02-26 07:55:00,35.3,33.5,29.80,SE,133,10.4,10.4,93,0.06,RA,,0.10,WeatherDisplay:10.37,2013-02-26 12:55:00,
2013-02-26 07:57:00,36.0,34.2,29.80,ESE,105,11.5,11.5,93,0.06,RA,,0.10,WeatherDisplay:10.37,2013-02-26 12:57:00,
2013-02-26 07:59:00,36.4,34.6,29.80,East,94,9.2,9.2,93,0.06,RA,,0.11,WeatherDisplay:10.37,2013-02-26 12:59:00,
2013-02-26 08:00:00,36.7,34.6,29.80,East,87,9.2,9.2,92,0.06,RA,,0.11,WeatherDisplay:10.37,2013-02-26 13:00:00,
2013-02-26 08:01:00,36.9,34.8,29.80,ENE,58,10.4,10.4,92,0.06,RA,,0.11,WeatherDisplay:10.37,2013-02-26 13:01:00,
2013-02-26 08:03:00,37.5,35.4,29.80,East,85,12.7,12.7,92,0.06,RA,,0.11,WeatherDisplay:10.37,2013-02-26 13:03:00,
2013-02-26 08:04:00,37.6,35.5,29.80,ESE,118,14.0,14.0,92,0.06,RA,,0.11,WeatherDisplay:10.37,2013-02-26 13:04:00,
2013-02-26 08:05:00,37.9,35.5,29.80,ESE,108,13.8,13.8,91,0.06,RA,,0.11,WeatherDisplay:10.37,2013-02-26 13:05:00,
2013-02-26 08:08:00,38.3,35.9,29.80,ESE,108,9.2,9.2,91,0.07,RA,,0.12,WeatherDisplay:10.37,2013-02-26 13:08:00,
2013-02-26 08:09:00,38.5,35.8,29.81,ESE,110,11.5,11.5,90,0.07,RA,,0.12,WeatherDisplay:10.37,2013-02-26 13:09:00,
2013-02-26 08:10:00,38.7,36.0,29.81,ENE,78,6.9,6.9,90,0.07,RA,,0.12,WeatherDisplay:10.37,2013-02-26 13:10:00,
2013-02-26 08:13:00,39.1,36.1,29.81,East,99,12.7,12.7,89,0.06,RA,,0.12,WeatherDisplay:10.37,2013-02-26 13:13:00,
2013-02-26 08:14:00,39.2,36.2,29.81,ESE,115,11.5,11.5,89,0.06,RA,,0.12,WeatherDisplay:10.37,2013-02-26 13:14:00,
2013-02-26 08:15:00,39.4,36.4,29.80,SE,133,9.2,9.2,89,0.06,RA,,0.12,WeatherDisplay:10.37,2013-02-26 13:15:00,
2013-02-26 08:18:00,39.6,36.3,29.80,ESE,122,9.2,9.2,88,0.06,,,0.12,WeatherDisplay:10.37,2013-02-26 13:18:00,
2013-02-26 08:19:00,39.6,36.3,29.79,East,84,13.8,13.8,88,0.06,,,0.12,WeatherDisplay:10.37,2013-02-26 13:19:00,
2013-02-26 08:21:00,39.6,36.3,29.79,East,96,11.5,11.5,88,0.06,,,0.12,WeatherDisplay:10.37,2013-02-26 13:21:00,
2013-02-26 08:24:00,39.3,35.8,29.79,ENE,71,10.4,10.4,87,0.05,,,0.12,WeatherDisplay:10.37,2013-02-26 13:24:00,
2013-02-26 08:25:00,39.1,35.6,29.79,East,82,10.4,10.4,87,0.05,,,0.13,WeatherDisplay:10.37,2013-02-26 13:25:00,
2013-02-26 08:26:00,38.7,35.2,29.80,ESE,115,10.4,10.4,87,0.06,RA,,0.13,WeatherDisplay:10.37,2013-02-26 13:26:00,
2013-02-26 08:29:00,37.8,34.3,29.80,East,89,8.1,8.1,87,0.06,RA,,0.13,WeatherDisplay:10.37,2013-02-26 13:29:00,
2013-02-26 08:30:00,37.5,34.0,29.80,East,98,8.1,8.1,87,0.06,RA,,0.13,WeatherDisplay:10.37,2013-02-26 13:30:00,
2013-02-26 08:31:00,37.1,33.9,29.80,ENE,58,11.5,11.5,88,0.06,RA,,0.13,WeatherDisplay:10.37,2013-02-26 13:31:00,
2013-02-26 08:34:00,36.5,33.6,29.81,WNW,283,4.6,4.6,89,0.05,RA,,0.13,WeatherDisplay:10.37,2013-02-26 13:34:00,
2013-02-26 08:35:00,36.4,33.5,29.81,NW,305,2.0,2.0,89,0.05,,,0.13,WeatherDisplay:10.37,2013-02-26 13:35:00,
2013-02-26 08:36:00,36.2,33.3,29.81,NNE,12,3.5,3.5,89,0.05,,,0.13,WeatherDisplay:10.37,2013-02-26 13:36:00,
2013-02-26 08:39:00,35.9,33.0,29.81,East,88,4.6,4.6,89,0.05,,,0.13,WeatherDisplay:10.37,2013-02-26 13:39:00,
2013-02-26 08:40:00,35.8,32.9,29.81,ESE,113,3.5,3.5,89,0.05,,,0.13,WeatherDisplay:10.37,2013-02-26 13:40:00,
2013-02-26 08:41:00,35.7,33.1,29.81,East,87,4.6,4.6,90,0.04,,,0.13,WeatherDisplay:10.37,2013-02-26 13:41:00,
2013-02-26 08:44:00,35.5,32.9,29.81,East,91,8.1,8.1,90,0.04,,,0.13,WeatherDisplay:10.37,2013-02-26 13:44:00,
2013-02-26 08:45:00,35.5,32.9,29.81,SE,144,5.0,5.0,90,0.04,,,0.13,WeatherDisplay:10.37,2013-02-26 13:45:00,
2013-02-26 08:47:00,35.4,33.0,29.81,East,82,6.9,6.9,91,0.05,RA,,0.14,WeatherDisplay:10.37,2013-02-26 13:47:00,
2013-02-26 08:50:00,35.3,32.9,29.80,ENE,78,9.2,9.2,91,0.05,RA,,0.14,WeatherDisplay:10.37,2013-02-26 13:50:00,
2013-02-26 08:52:00,35.3,32.9,29.80,ESE,122,10.0,10.0,91,0.04,RA,,0.14,WeatherDisplay:10.37,2013-02-26 13:52:00,
2013-02-26 08:55:00,35.4,33.0,29.80,ESE,106,10.4,10.4,91,0.04,RA,,0.14,WeatherDisplay:10.37,2013-02-26 13:55:00,
2013-02-26 08:57:00,35.4,33.0,29.80,East,91,6.9,6.9,91,0.04,,,0.14,WeatherDisplay:10.37,2013-02-26 13:57:00,
2013-02-26 09:00:00,35.5,33.4,29.79,ESE,114,5.8,5.8,92,0.03,,,0.14,WeatherDisplay:10.37,2013-02-26 14:00:00,
2013-02-26 09:03:00,35.5,33.4,29.78,East,79,6.9,6.9,92,0.03,,,0.14,WeatherDisplay:10.37,2013-02-26 14:03:00,
2013-02-26 09:05:00,35.7,33.6,29.78,NE,46,10.0,10.0,92,0.03,,,0.14,WeatherDisplay:10.37,2013-02-26 14:05:00,
2013-02-26 09:10:00,35.9,33.8,29.78,ENE,73,11.5,11.5,92,0.02,,,0.14,WeatherDisplay:10.37,2013-02-26 14:10:00,
2013-02-26 09:11:00,36.0,33.9,29.77,East,101,9.0,9.0,92,0.02,,,0.14,WeatherDisplay:10.37,2013-02-26 14:11:00,
2013-02-26 09:15:00,36.5,34.4,29.76,ENE,78,11.5,11.5,92,0.02,,,0.14,WeatherDisplay:10.37,2013-02-26 14:15:00,
2013-02-26 09:16:00,36.6,34.5,29.77,SE,128,11.5,11.5,92,0.02,,,0.14,WeatherDisplay:10.37,2013-02-26 14:16:00,
2013-02-26 09:21:00,37.9,35.8,29.76,East,79,12.7,12.7,92,0.02,,,0.14,WeatherDisplay:10.37,2013-02-26 14:21:00,
2013-02-26 09:22:00,38.0,35.9,29.76,East,85,12.7,12.7,92,0.02,,,0.14,WeatherDisplay:10.37,2013-02-26 14:22:00,
2013-02-26 09:26:00,38.8,36.1,29.75,East,88,9.2,9.2,90,0.01,,,0.14,WeatherDisplay:10.37,2013-02-26 14:26:00,
2013-02-26 09:27:00,38.9,36.2,29.76,SSE,162,9.2,9.2,90,0.01,,,0.14,WeatherDisplay:10.37,2013-02-26 14:27:00,
2013-02-26 09:31:00,39.4,36.4,29.75,East,85,11.0,11.0,89,0.01,,,0.14,WeatherDisplay:10.37,2013-02-26 14:31:00,
2013-02-26 09:32:00,39.4,36.4,29.74,East,85,12.7,12.7,89,0.01,,,0.14,WeatherDisplay:10.37,2013-02-26 14:32:00,
2013-02-26 09:36:00,39.6,36.3,29.73,ENE,77,12.7,12.7,88,0.01,,,0.14,WeatherDisplay:10.37,2013-02-26 14:36:00,
2013-02-26 09:37:00,39.6,36.3,29.74,East,87,15.0,15.0,88,0.01,,,0.14,WeatherDisplay:10.37,2013-02-26 14:37:00,
2013-02-26 09:41:00,39.8,36.5,29.74,ESE,108,8.1,8.1,88,0.01,,,0.14,WeatherDisplay:10.37,2013-02-26 14:41:00,
2013-02-26 09:42:00,39.8,36.5,29.74,East,84,6.9,6.9,88,0.01,,,0.14,WeatherDisplay:10.37,2013-02-26 14:42:00,
2013-02-26 09:47:00,40.7,37.7,29.73,ESE,110,8.1,8.1,89,0.01,,,0.14,WeatherDisplay:10.37,2013-02-26 14:47:00,
2013-02-26 09:52:00,41.7,38.4,29.72,SSE,149,11.5,11.5,88,0.00,,,0.14,WeatherDisplay:10.37,2013-02-26 14:52:00,
2013-02-26 09:53:00,42.1,38.8,29.72,SSE,148,11.5,11.5,88,0.00,,,0.14,WeatherDisplay:10.37,2013-02-26 14:53:00,
2013-02-26 09:57:00,42.8,38.9,29.72,ESE,109,11.5,11.5,86,0.00,,,0.14,WeatherDisplay:10.37,2013-02-26 14:57:00,
2013-02-26 09:58:00,43.1,38.9,29.73,East,90,11.5,11.5,85,0.00,,,0.14,WeatherDisplay:10.37,2013-02-26 14:58:00,
2013-02-26 10:02:00,43.3,38.8,29.74,WSW,238,9.2,9.2,84,0.00,,,0.14,WeatherDisplay:10.37,2013-02-26 15:02:00,
2013-02-26 10:03:00,43.5,39.0,29.73,SSE,159,12.7,12.7,84,0.00,,,0.14,WeatherDisplay:10.37,2013-02-26 15:03:00,
2013-02-26 10:04:00,43.5,39.0,29.74,SSE,165,12.7,12.7,84,0.00,,,0.14,WeatherDisplay:10.37,2013-02-26 15:04:00,
2013-02-26 10:07:00,43.6,38.8,29.74,ESE,118,6.0,6.0,83,0.00,,,0.14,WeatherDisplay:10.37,2013-02-26 15:07:00,
2013-02-26 10:08:00,43.6,38.8,29.73,ENE,59,4.6,5.2,83,0.00,,,0.14,WeatherDisplay:10.37,2013-02-26 15:08:00,
2013-02-26 10:09:00,43.6,39.1,29.73,ESE,116,9.2,9.2,84,0.00,,,0.14,WeatherDisplay:10.37,2013-02-26 15:09:00,
2013-02-26 10:12:00,43.6,39.1,29.73,East,85,9.0,9.0,84,0.00,,,0.14,WeatherDisplay:10.37,2013-02-26 15:12:00,
2013-02-26 10:13:00,43.6,39.1,29.73,East,101,9.2,9.2,84,0.00,,,0.14,WeatherDisplay:10.37,2013-02-26 15:13:00,
2013-02-26 10:14:00,43.6,39.1,29.73,East,89,11.5,11.5,84,0.00,,,0.14,WeatherDisplay:10.37,2013-02-26 15:14:00,
2013-02-26 10:18:00,43.5,39.0,29.73,East,80,8.1,8.1,84,0.01,RA,,0.15,WeatherDisplay:10.37,2013-02-26 15:18:00,
2013-02-26 10:19:00,43.5,39.0,29.73,East,100,5.8,5.8,84,0.01,RA,,0.15,WeatherDisplay:10.37,2013-02-26 15:19:00,
2013-02-26 10:23:00,43.3,38.8,29.73,NE,35,6.0,6.0,84,0.01,RA,,0.15,WeatherDisplay:10.37,2013-02-26 15:23:00,
2013-02-26 10:24:00,43.2,38.7,29.73,East,101,10.4,10.4,84,0.01,RA,,0.15,WeatherDisplay:10.37,2013-02-26 15:24:00,
2013-02-26 10:25:00,43.1,38.6,29.73,East,99,8.1,8.1,84,0.01,RA,,0.15,WeatherDisplay:10.37,2013-02-26 15:25:00,
2013-02-26 10:28:00,42.8,38.6,29.72,East,85,9.2,9.2,85,0.01,,,0.15,WeatherDisplay:10.37,2013-02-26 15:28:00,
2013-02-26 10:29:00,42.3,37.8,29.71,South,170,8.1,8.1,84,0.01,,,0.15,WeatherDisplay:10.37,2013-02-26 15:29:00,
2013-02-26 10:30:00,42.0,37.5,29.72,ENE,57,12.0,12.0,84,0.01,,,0.15,WeatherDisplay:10.37,2013-02-26 15:30:00,
2013-02-26 10:33:00,40.4,35.9,29.71,ESE,115,11.5,11.5,84,0.02,RA,,0.16,WeatherDisplay:10.37,2013-02-26 15:33:00,
2013-02-26 10:35:00,39.9,35.5,29.71,East,95,9.0,14.0,84,0.00,RA,,0.16,WeatherDisplay:10.37,2013-02-26 15:35:00,
2013-02-26 10:38:00,38.8,35.6,29.71,SSE,157,10.4,10.4,88,0.02,RA,,0.16,WeatherDisplay:10.37,2013-02-26 15:38:00,
2013-02-26 10:40:00,38.7,35.4,29.71,ESE,108,7.0,12.0,88,0.00,RA,,0.16,WeatherDisplay:10.37,2013-02-26 15:40:00,
2013-02-26 10:43:00,38.4,35.7,29.70,ESE,103,9.2,9.2,90,0.02,,,0.16,WeatherDisplay:10.37,2013-02-26 15:43:00,
2013-02-26 10:44:00,38.4,35.7,29.70,SE,132,9.2,9.2,90,0.02,,,0.16,WeatherDisplay:10.37,2013-02-26 15:44:00,
2013-02-26 10:45:00,38.4,35.7,29.70,ESE,114,6.0,12.0,90,0.00,,,0.16,WeatherDisplay:10.37,2013-02-26 15:45:00,
2013-02-26 10:46:00,38.6,36.2,29.69,NE,50,11.5,11.5,91,0.02,,,0.16,WeatherDisplay:10.37,2013-02-26 15:46:00,
2013-02-26 10:48:00,39.0,36.9,29.70,ESE,118,8.1,8.1,92,0.02,,,0.16,WeatherDisplay:10.37,2013-02-26 15:48:00,
2013-02-26 10:50:00,39.4,37.3,29.70,ESE,106,8.1,8.1,92,0.02,,,0.17,WeatherDisplay:10.37,2013-02-26 15:50:00,
2013-02-26 10:51:00,39.9,38.0,29.70,SE,127,9.2,9.2,93,0.03,RA,,0.17,WeatherDisplay:10.37,2013-02-26 15:51:00,
2013-02-26 10:54:00,41.0,38.6,29.69,SSE,147,11.5,11.5,91,0.03,RA,,0.17,WeatherDisplay:10.37,2013-02-26 15:54:00,
2013-02-26 10:55:00,41.1,38.7,29.70,ESE,118,10.4,10.4,91,0.03,RA,,0.17,WeatherDisplay:10.37,2013-02-26 15:55:00,
2013-02-26 10:56:00,41.6,39.2,29.70,SE,136,13.8,13.8,91,0.03,RA,,0.17,WeatherDisplay:10.37,2013-02-26 15:56:00,
2013-02-26 10:59:00,42.1,39.1,29.69,SE,129,16.1,16.1,89,0.03,RA,,0.17,WeatherDisplay:10.37,2013-02-26 15:59:00,
2013-02-26 11:00:00,42.1,39.1,29.69,SE,133,16.1,16.1,89,0.03,RA,,0.17,WeatherDisplay:10.37,2013-02-26 16:00:00,
2013-02-26 11:01:00,42.3,39.0,29.69,SE,134,15.0,15.0,88,0.03,,,0.17,WeatherDisplay:10.37,2013-02-26 16:01:00,
2013-02-26 11:04:00,42.6,39.0,29.68,SE,137,12.7,12.7,87,0.03,,,0.17,WeatherDisplay:10.37,2013-02-26 16:04:00,
2013-02-26 11:05:00,42.6,39.0,29.68,East,95,11.5,11.5,87,0.03,,,0.17,WeatherDisplay:10.37,2013-02-26 16:05:00,
2013-02-26 11:06:00,42.7,39.1,29.68,ESE,115,12.7,12.7,87,0.03,,,0.17,WeatherDisplay:10.37,2013-02-26 16:06:00,
2013-02-26 11:10:00,42.9,39.3,29.69,ESE,115,13.8,13.8,87,0.03,,,0.17,WeatherDisplay:10.37,2013-02-26 16:10:00,
2013-02-26 11:11:00,43.0,39.4,29.69,East,101,12.7,12.7,87,0.03,,,0.17,WeatherDisplay:10.37,2013-02-26 16:11:00,
2013-02-26 11:12:00,43.1,39.5,29.68,East,94,12.7,12.7,87,0.03,,,0.17,WeatherDisplay:10.37,2013-02-26 16:12:00,
2013-02-26 11:15:00,43.3,39.4,29.67,SE,141,11.5,11.5,86,0.03,,,0.17,WeatherDisplay:10.37,2013-02-26 16:15:00,
2013-02-26 11:16:00,43.4,39.5,29.66,East,85,11.5,11.5,86,0.02,,,0.17,WeatherDisplay:10.37,2013-02-26 16:16:00,
2013-02-26 11:17:00,43.4,39.8,29.66,South,171,11.5,11.5,87,0.02,,,0.17,WeatherDisplay:10.37,2013-02-26 16:17:00,
2013-02-26 11:20:00,43.6,40.0,29.65,SE,127,15.0,15.0,87,0.02,,,0.17,WeatherDisplay:10.37,2013-02-26 16:20:00,
2013-02-26 11:21:00,43.6,40.0,29.65,ENE,78,12.7,12.7,87,0.02,,,0.17,WeatherDisplay:10.37,2013-02-26 16:21:00,
2013-02-26 11:22:00,43.7,39.8,29.65,East,88,13.8,13.8,86,0.02,,,0.17,WeatherDisplay:10.37,2013-02-26 16:22:00,
2013-02-26 11:26:00,44.0,39.8,29.65,East,89,13.0,13.0,85,0.02,,,0.17,WeatherDisplay:10.37,2013-02-26 16:26:00,
2013-02-26 11:27:00,44.1,39.9,29.64,SE,126,12.7,12.7,85,0.02,,,0.17,WeatherDisplay:10.37,2013-02-26 16:27:00,
2013-02-26 11:31:00,44.4,39.9,29.65,SE,130,13.8,13.8,84,0.02,,,0.17,WeatherDisplay:10.37,2013-02-26 16:31:00,
2013-02-26 11:32:00,44.6,40.1,29.65,East,99,18.4,18.4,84,0.02,,,0.17,WeatherDisplay:10.37,2013-02-26 16:32:00,
2013-02-26 11:36:00,45.2,40.7,29.65,SE,134,12.7,12.7,84,0.01,,,0.17,WeatherDisplay:10.37,2013-02-26 16:36:00,
2013-02-26 11:37:00,45.4,40.8,29.64,SE,144,12.7,12.7,84,0.01,,,0.17,WeatherDisplay:10.37,2013-02-26 16:37:00,
2013-02-26 11:38:00,45.6,40.7,29.65,ESE,105,11.5,11.5,83,0.01,,,0.17,WeatherDisplay:10.37,2013-02-26 16:38:00,
2013-02-26 11:41:00,46.0,41.4,29.64,East,94,15.0,15.0,84,0.01,,,0.17,WeatherDisplay:10.37,2013-02-26 16:41:00,
2013-02-26 11:42:00,46.1,41.2,29.64,East,81,10.4,10.4,83,0.01,,,0.17,WeatherDisplay:10.37,2013-02-26 16:42:00,
2013-02-26 11:43:00,46.3,41.1,29.64,South,177,13.8,13.8,82,0.01,,,0.17,WeatherDisplay:10.37,2013-02-26 16:43:00,
2013-02-26 11:46:00,46.5,40.7,29.64,East,84,11.5,11.5,80,0.01,,,0.17,WeatherDisplay:10.37,2013-02-26 16:46:00,
2013-02-26 11:47:00,46.5,40.7,29.64,ESE,116,11.5,11.5,80,0.01,,,0.17,WeatherDisplay:10.37,2013-02-26 16:47:00,
2013-02-26 11:48:00,46.5,41.0,29.64,East,98,11.5,11.5,81,0.01,,,0.17,WeatherDisplay:10.37,2013-02-26 16:48:00,
2013-02-26 11:49:00,46.5,40.7,29.63,ESE,108,16.1,16.1,80,0.01,,,0.17,WeatherDisplay:10.37,2013-02-26 16:49:00,
2013-02-26 11:51:00,46.6,40.8,29.63,SSW,199,17.3,17.3,80,0.00,,,0.17,WeatherDisplay:10.37,2013-02-26 16:51:00,
2013-02-26 11:52:00,46.7,40.9,29.64,SSE,148,17.0,17.0,80,0.00,,,0.17,WeatherDisplay:10.37,2013-02-26 16:52:00,
2013-02-26 11:53:00,46.9,41.1,29.63,SSW,198,21.9,21.9,80,0.00,,,0.17,WeatherDisplay:10.37,2013-02-26 16:53:00,
2013-02-26 11:54:00,46.9,40.7,29.63,ESE,119,21.9,21.9,79,0.00,,,0.17,WeatherDisplay:10.37,2013-02-26 16:54:00,
2013-02-26 11:56:00,47.1,40.6,29.64,ESE,120,16.1,16.1,78,0.00,,,0.17,WeatherDisplay:10.37,2013-02-26 16:56:00,
2013-02-26 11:57:00,47.2,41.0,29.63,SE,130,21.0,21.0,79,0.00,,,0.17,WeatherDisplay:10.37,2013-02-26 16:57:00,
2013-02-26 11:59:00,47.2,40.7,29.63,ENE,76,20.7,20.7,78,0.00,,,0.17,WeatherDisplay:10.37,2013-02-26 16:59:00,
2013-02-26 12:00:00,47.2,40.7,29.63,East,88,17.3,17.3,78,0.00,,,0.17,WeatherDisplay:10.37,2013-02-26 17:00:00,
2013-02-26 12:01:00,47.3,40.8,29.63,East,88,12.7,12.7,78,0.00,,,0.17,WeatherDisplay:10.37,2013-02-26 17:01:00,
2013-02-26 12:02:00,47.3,41.1,29.62,East,82,19.6,19.6,79,0.00,,,0.17,WeatherDisplay:10.37,2013-02-26 17:02:00,
2013-02-26 12:04:00,47.5,41.6,29.63,SE,130,11.5,11.5,80,0.00,,,0.17,WeatherDisplay:10.37,2013-02-26 17:04:00,
2013-02-26 12:05:00,47.6,41.7,29.62,ENE,65,11.5,11.5,80,0.00,,,0.17,WeatherDisplay:10.37,2013-02-26 17:05:00,
2013-02-26 12:07:00,47.9,41.0,29.63,East,89,18.4,18.4,77,0.00,,,0.17,WeatherDisplay:10.37,2013-02-26 17:07:00,
2013-02-26 12:08:00,47.9,41.0,29.63,ESE,114,18.0,18.0,77,0.00,,,0.17,WeatherDisplay:10.37,2013-02-26 17:08:00,
2013-02-26 12:09:00,48.0,40.8,29.63,ESE,103,16.1,16.1,76,0.00,,,0.17,WeatherDisplay:10.37,2013-02-26 17:09:00,
2013-02-26 12:10:00,48.1,40.9,29.63,ENE,68,17.3,17.3,76,0.00,,,0.17,WeatherDisplay:10.37,2013-02-26 17:10:00,
2013-02-26 12:12:00,48.3,41.1,29.63,ENE,77,18.4,18.4,76,0.00,,,0.17,WeatherDisplay:10.37,2013-02-26 17:12:00,
2013-02-26 12:13:00,48.4,40.8,29.63,SSE,147,19.6,19.6,75,0.00,,,0.17,WeatherDisplay:10.37,2013-02-26 17:13:00,
2013-02-26 12:14:00,48.5,41.3,29.62,SE,126,11.5,11.5,76,0.00,,,0.17,WeatherDisplay:10.37,2013-02-26 17:14:00,
2013-02-26 12:15:00,48.5,41.3,29.63,East,92,11.0,11.0,76,0.00,,,0.17,WeatherDisplay:10.37,2013-02-26 17:15:00,
2013-02-26 12:17:00,48.6,41.0,29.63,East,94,19.6,19.6,75,0.00,,,0.17,WeatherDisplay:10.37,2013-02-26 17:17:00,
2013-02-26 12:19:00,48.7,40.8,29.63,East,81,11.5,11.7,74,0.00,,,0.17,WeatherDisplay:10.37,2013-02-26 17:19:00,
2013-02-26 12:20:00,48.7,40.8,29.62,East,84,18.4,18.4,74,0.00,,,0.17,WeatherDisplay:10.37,2013-02-26 17:20:00,
2013-02-26 12:22:00,48.7,40.8,29.62,SE,139,17.3,17.3,74,0.00,,,0.17,WeatherDisplay:10.37,2013-02-26 17:22:00,
2013-02-26 12:24:00,48.7,40.8,29.62,SE,134,12.7,12.7,74,0.00,,,0.17,WeatherDisplay:10.37,2013-02-26 17:24:00,
2013-02-26 12:25:00,48.7,40.8,29.61,ESE,109,11.5,11.5,74,0.00,,,0.17,WeatherDisplay:10.37,2013-02-26 17:25:00,
2013-02-26 12:27:00,48.8,40.5,29.61,SE,145,15.0,15.0,73,0.00,,,0.17,WeatherDisplay:10.37,2013-02-26 17:27:00,
2013-02-26 12:30:00,48.9,40.6,29.61,SE,136,19.6,19.6,73,0.00,,,0.17,WeatherDisplay:10.37,2013-02-26 17:30:00,
2013-02-26 12:33:00,49.1,41.5,29.61,SSW,201,11.5,11.5,75,0.00,,,0.17,WeatherDisplay:10.37,2013-02-26 17:33:00,
2013-02-26 12:35:00,49.2,40.9,29.61,SE,136,17.3,17.3,73,0.00,,,0.17,WeatherDisplay:10.37,2013-02-26 17:35:00,
2013-02-26 12:38:00,49.1,40.8,29.60,SE,139,18.4,18.4,73,0.00,,,0.17,WeatherDisplay:10.37,2013-02-26 17:38:00,
2013-02-26 12:40:00,49.1,41.2,29.60,ESE,118,11.5,11.5,74,0.00,,,0.17,WeatherDisplay:10.37,2013-02-26 17:40:00,
2013-02-26 12:41:00,49.1,40.8,29.60,SSW,198,18.4,18.4,73,0.00,,,0.17,WeatherDisplay:10.37,2013-02-26 17:41:00,
2013-02-26 12:43:00,49.0,40.7,29.61,SE,136,17.3,17.3,73,0.00,,,0.17,WeatherDisplay:10.37,2013-02-26 17:43:00,
2013-02-26 12:45:00,48.9,40.3,29.61,SE,137,15.0,15.0,72,0.00,,,0.17,WeatherDisplay:10.37,2013-02-26 17:45:00,
2013-02-26 12:46:00,48.8,40.2,29.61,SE,144,13.8,13.8,72,0.00,,,0.17,WeatherDisplay:10.37,2013-02-26 17:46:00,
2013-02-26 12:48:00,48.7,40.4,29.62,SE,131,10.4,10.4,73,0.00,,,0.17,WeatherDisplay:10.37,2013-02-26 17:48:00,
2013-02-26 12:50:00,48.6,40.3,29.61,ESE,110,9.2,9.2,73,0.00,,,0.17,WeatherDisplay:10.37,2013-02-26 17:50:00,
2013-02-26 12:51:00,48.6,40.3,29.61,ESE,102,13.8,13.8,73,0.00,,,0.17,WeatherDisplay:10.37,2013-02-26 17:51:00,
2013-02-26 12:53:00,48.5,40.9,29.61,SE,135,9.2,9.2,75,0.00,,,0.17,WeatherDisplay:10.37,2013-02-26 17:53:00,
2013-02-26 12:55:00,48.5,40.2,29.61,SSE,162,11.5,11.5,73,0.00,,,0.17,WeatherDisplay:10.37,2013-02-26 17:55:00,
2013-02-26 12:56:00,48.5,40.6,29.61,ESE,122,10.4,10.4,74,0.00,,,0.17,WeatherDisplay:10.37,2013-02-26 17:56:00,
2013-02-26 12:57:00,48.5,40.9,29.61,SSE,151,9.2,9.2,75,0.00,,,0.17,WeatherDisplay:10.37,2013-02-26 17:57:00,
2013-02-26 12:58:00,48.5,41.3,29.61,SSE,147,8.1,8.1,76,0.00,,,0.17,WeatherDisplay:10.37,2013-02-26 17:58:00,
2013-02-26 13:00:00,48.6,41.0,29.61,East,94,9.2,9.2,75,0.00,,,0.17,WeatherDisplay:10.37,2013-02-26 18:00:00,
2013-02-26 13:01:00,48.6,41.0,29.60,East,88,11.5,11.5,75,0.00,,,0.17,WeatherDisplay:10.37,2013-02-26 18:01:00,
2013-02-26 13:03:00,48.7,40.8,29.60,SE,129,11.5,11.5,74,0.00,,,0.17,WeatherDisplay:10.37,2013-02-26 18:03:00,
2013-02-26 13:05:00,48.7,40.4,29.60,ESE,110,17.3,17.3,73,0.00,,,0.17,WeatherDisplay:10.37,2013-02-26 18:05:00,
2013-02-26 13:06:00,48.8,40.9,29.59,SSW,205,17.3,17.3,74,0.00,,,0.17,WeatherDisplay:10.37,2013-02-26 18:06:00,
2013-02-26 13:08:00,48.8,40.9,29.59,East,101,19.6,19.6,74,0.00,,,0.17,WeatherDisplay:10.37,2013-02-26 18:08:00,
2013-02-26 13:10:00,48.8,40.2,29.60,ESE,115,13.8,13.8,72,0.00,,,0.17,WeatherDisplay:10.37,2013-02-26 18:10:00,
2013-02-26 13:12:00,48.8,40.2,29.60,East,89,17.3,17.3,72,0.00,,,0.17,WeatherDisplay:10.37,2013-02-26 18:12:00,
2013-02-26 13:13:00,48.7,40.1,29.60,SE,146,15.0,15.0,72,0.00,,,0.17,WeatherDisplay:10.37,2013-02-26 18:13:00,
2013-02-26 13:15:00,48.6,40.0,29.60,ENE,78,11.5,11.5,72,0.00,,,0.17,WeatherDisplay:10.37,2013-02-26 18:15:00,
2013-02-26 13:17:00,48.3,40.4,29.60,ESE,120,18.4,18.4,74,0.01,RA,,0.18,WeatherDisplay:10.37,2013-02-26 18:17:00,
2013-02-26 13:18:00,48.1,40.2,29.60,South,170,17.3,17.3,74,0.01,RA,,0.18,WeatherDisplay:10.37,2013-02-26 18:18:00,
2013-02-26 13:20:00,47.8,40.6,29.60,SE,126,12.7,12.7,76,0.01,RA,,0.18,WeatherDisplay:10.37,2013-02-26 18:20:00,
2013-02-26 13:22:00,47.5,40.3,29.60,NE,50,14.0,14.0,76,0.01,RA,,0.18,WeatherDisplay:10.37,2013-02-26 18:22:00,
2013-02-26 13:23:00,47.3,40.5,29.60,SE,129,13.8,13.8,77,0.01,RA,,0.18,WeatherDisplay:10.37,2013-02-26 18:23:00,
2013-02-26 13:25:00,47.1,39.9,29.61,East,80,18.4,18.4,76,0.01,RA,,0.18,WeatherDisplay:10.37,2013-02-26 18:25:00,
2013-02-26 13:27:00,47.2,40.0,29.60,ESE,115,13.8,13.8,76,0.01,,,0.18,WeatherDisplay:10.37,2013-02-26 18:27:00,
2013-02-26 13:28:00,47.2,40.0,29.60,SE,145,16.1,16.1,76,0.01,,,0.18,WeatherDisplay:10.37,2013-02-26 18:28:00,
2013-02-26 13:30:00,47.3,40.8,29.59,SE,133,12.7,12.7,78,0.01,,,0.18,WeatherDisplay:10.37,2013-02-26 18:30:00,
2013-02-26 13:32:00,47.4,40.6,29.59,SE,127,11.5,11.5,77,0.01,,,0.18,WeatherDisplay:10.37,2013-02-26 18:32:00,
2013-02-26 13:34:00,47.4,40.2,29.59,East,84,11.5,11.5,76,0.01,,,0.18,WeatherDisplay:10.37,2013-02-26 18:34:00,
2013-02-26 13:36:00,47.3,40.1,29.59,ENE,77,14.0,14.0,76,0.01,,,0.18,WeatherDisplay:10.37,2013-02-26 18:36:00,
2013-02-26 13:38:00,47.3,40.1,29.59,ENE,70,11.5,11.5,76,0.01,,,0.18,WeatherDisplay:10.37,2013-02-26 18:38:00,
2013-02-26 13:39:00,47.3,40.1,29.59,ESE,115,11.5,11.5,76,0.01,,,0.18,WeatherDisplay:10.37,2013-02-26 18:39:00,
2013-02-26 13:41:00,47.3,40.1,29.59,ENE,61,15.0,15.0,76,0.01,,,0.18,WeatherDisplay:10.37,2013-02-26 18:41:00,
2013-02-26 13:43:00,47.2,40.4,29.58,SE,130,12.7,12.7,77,0.01,,,0.18,WeatherDisplay:10.37,2013-02-26 18:43:00,
2013-02-26 13:44:00,47.2,40.4,29.58,ESE,104,11.5,11.5,77,0.01,,,0.18,WeatherDisplay:10.37,2013-02-26 18:44:00,
2013-02-26 13:47:00,47.0,39.5,29.58,ESE,122,19.6,19.6,75,0.01,,,0.18,WeatherDisplay:10.37,2013-02-26 18:47:00,
2013-02-26 13:48:00,46.9,39.4,29.57,SSE,157,13.8,13.8,75,0.01,,,0.18,WeatherDisplay:10.37,2013-02-26 18:48:00,
2013-02-26 13:50:00,46.9,39.7,29.57,ESE,121,10.0,20.0,76,0.00,,,0.18,WeatherDisplay:10.37,2013-02-26 18:50:00,
2013-02-26 13:52:00,46.9,39.7,29.57,SE,141,10.4,10.4,76,0.01,,,0.18,WeatherDisplay:10.37,2013-02-26 18:52:00,
2013-02-26 13:53:00,46.9,39.7,29.57,ESE,116,11.5,11.5,76,0.01,,,0.18,WeatherDisplay:10.37,2013-02-26 18:53:00,
2013-02-26 13:55:00,46.9,39.7,29.57,SE,130,12.7,12.7,76,0.01,,,0.18,WeatherDisplay:10.37,2013-02-26 18:55:00,
2013-02-26 13:57:00,46.9,40.1,29.57,South,181,10.4,10.4,77,0.01,,,0.18,WeatherDisplay:10.37,2013-02-26 18:57:00,
2013-02-26 13:58:00,46.8,40.0,29.58,ESE,112,12.7,12.7,77,0.01,,,0.18,WeatherDisplay:10.37,2013-02-26 18:58:00,
2013-02-26 14:00:00,46.8,40.0,29.58,ESE,113,7.0,13.0,77,0.00,,,0.18,WeatherDisplay:10.37,2013-02-26 19:00:00,
2013-02-26 14:01:00,46.8,39.6,29.57,South,177,10.0,10.0,76,0.01,,,0.18,WeatherDisplay:10.37,2013-02-26 19:01:00,
2013-02-26 14:03:00,46.7,39.5,29.58,SE,127,13.8,13.8,76,0.01,,,0.18,WeatherDisplay:10.37,2013-02-26 19:03:00,
2013-02-26 14:05:00,46.7,39.5,29.58,SSE,158,10.4,10.4,76,0.01,,,0.18,WeatherDisplay:10.37,2013-02-26 19:05:00,
2013-02-26 14:06:00,46.7,39.5,29.57,ESE,115,13.8,13.8,76,0.01,,,0.18,WeatherDisplay:10.37,2013-02-26 19:06:00,
2013-02-26 14:08:00,46.8,39.3,29.57,SE,127,13.8,13.8,75,0.01,,,0.18,WeatherDisplay:10.37,2013-02-26 19:08:00,
2013-02-26 14:09:00,46.8,39.6,29.56,ESE,109,8.0,8.0,76,0.01,,,0.18,WeatherDisplay:10.37,2013-02-26 19:09:00,
2013-02-26 14:10:00,46.9,39.4,29.57,SSE,167,9.2,9.2,75,0.01,,,0.18,WeatherDisplay:10.37,2013-02-26 19:10:00,
2013-02-26 14:11:00,47.0,39.8,29.57,SE,135,8.1,8.1,76,0.01,,,0.18,WeatherDisplay:10.37,2013-02-26 19:11:00,
2013-02-26 14:13:00,47.3,40.5,29.57,SE,130,19.6,19.6,77,0.01,,,0.18,WeatherDisplay:10.37,2013-02-26 19:13:00,
2013-02-26 14:14:00,47.4,40.2,29.57,ESE,109,11.5,11.5,76,0.01,,,0.18,WeatherDisplay:10.37,2013-02-26 19:14:00,
2013-02-26 14:15:00,47.5,40.3,29.57,SE,137,9.2,9.2,76,0.01,,,0.18,WeatherDisplay:10.37,2013-02-26 19:15:00,
2013-02-26 14:16:00,47.7,40.2,29.57,ENE,77,11.5,11.5,75,0.01,,,0.18,WeatherDisplay:10.37,2013-02-26 19:16:00,
2013-02-26 14:18:00,47.7,40.2,29.56,East,84,10.4,10.4,75,0.00,,,0.18,WeatherDisplay:10.37,2013-02-26 19:18:00,
2013-02-26 14:19:00,47.8,40.6,29.56,ESE,110,9.2,9.2,76,0.00,,,0.18,WeatherDisplay:10.37,2013-02-26 19:19:00,
2013-02-26 14:20:00,47.8,40.3,29.56,ESE,118,8.1,8.1,75,0.00,,,0.18,WeatherDisplay:10.37,2013-02-26 19:20:00,
2013-02-26 14:23:00,47.8,39.9,29.56,SE,141,8.1,8.1,74,0.00,,,0.18,WeatherDisplay:10.37,2013-02-26 19:23:00,
2013-02-26 14:24:00,47.8,40.3,29.56,East,96,8.0,8.0,75,0.00,,,0.18,WeatherDisplay:10.37,2013-02-26 19:24:00,
2013-02-26 14:25:00,47.8,39.6,29.56,East,96,10.4,10.4,73,0.00,,,0.18,WeatherDisplay:10.37,2013-02-26 19:25:00,
2013-02-26 14:28:00,47.7,40.2,29.57,ENE,75,3.5,3.5,75,0.00,,,0.18,WeatherDisplay:10.37,2013-02-26 19:28:00,
2013-02-26 14:30:00,47.8,39.9,29.56,East,84,4.6,4.6,74,0.00,,,0.18,WeatherDisplay:10.37,2013-02-26 19:30:00,
2013-02-26 14:33:00,47.8,40.6,29.56,SE,136,13.8,13.8,76,0.00,,,0.18,WeatherDisplay:10.37,2013-02-26 19:33:00,
2013-02-26 14:34:00,47.9,40.0,29.56,East,99,9.2,9.2,74,0.00,,,0.18,WeatherDisplay:10.37,2013-02-26 19:34:00,
2013-02-26 14:35:00,47.9,40.0,29.55,SE,130,11.5,11.5,74,0.00,,,0.18,WeatherDisplay:10.37,2013-02-26 19:35:00,
2013-02-26 14:36:00,48.0,40.5,29.55,ESE,113,10.4,10.4,75,0.00,,,0.18,WeatherDisplay:10.37,2013-02-26 19:36:00,
2013-02-26 14:38:00,48.4,41.2,29.55,SSE,151,11.5,11.5,76,0.00,,,0.18,WeatherDisplay:10.37,2013-02-26 19:38:00,
2013-02-26 14:39:00,48.5,40.9,29.55,ESE,119,8.1,8.1,75,0.00,,,0.18,WeatherDisplay:10.37,2013-02-26 19:39:00,
2013-02-26 14:40:00,48.5,40.9,29.55,SE,130,9.2,9.2,75,0.00,,,0.18,WeatherDisplay:10.37,2013-02-26 19:40:00,
2013-02-26 14:41:00,48.6,41.0,29.55,East,97,5.8,5.8,75,0.00,,,0.18,WeatherDisplay:10.37,2013-02-26 19:41:00,
2013-02-26 14:44:00,49.2,43.0,29.55,East,79,3.5,3.5,79,0.00,,,0.18,WeatherDisplay:10.37,2013-02-26 19:44:00,
2013-02-26 14:45:00,49.4,41.8,29.54,South,189,9.2,9.2,75,0.00,,,0.18,WeatherDisplay:10.37,2013-02-26 19:45:00,
2013-02-26 14:46:00,49.4,41.1,29.55,NE,50,9.2,9.2,73,0.00,,,0.18,WeatherDisplay:10.37,2013-02-26 19:46:00,
2013-02-26 14:49:00,49.3,40.7,29.55,SSE,163,9.2,9.2,72,0.00,,,0.18,WeatherDisplay:10.37,2013-02-26 19:49:00,
2013-02-26 14:50:00,49.2,40.6,29.55,SE,144,6.9,6.9,72,0.00,,,0.18,WeatherDisplay:10.37,2013-02-26 19:50:00,
2013-02-26 14:52:00,49.0,40.0,29.55,ENE,78,5.8,5.8,71,0.00,,,0.18,WeatherDisplay:10.37,2013-02-26 19:52:00,
2013-02-26 14:54:00,48.8,40.2,29.55,NE,36,8.1,8.1,72,0.00,,,0.18,WeatherDisplay:10.37,2013-02-26 19:54:00,
2013-02-26 14:55:00,48.8,40.2,29.55,ESE,112,2.0,12.0,72,0.00,,,0.18,WeatherDisplay:10.37,2013-02-26 19:55:00,
2013-02-26 14:57:00,48.7,40.4,29.55,ENE,71,8.1,8.1,73,0.00,,,0.18,WeatherDisplay:10.37,2013-02-26 19:57:00,
2013-02-26 14:59:00,48.5,39.9,29.55,NW,310,6.0,6.0,72,0.00,,,0.18,WeatherDisplay:10.37,2013-02-26 19:59:00,
2013-02-26 15:00:00,48.4,39.8,29.55,West,260,8.1,8.1,72,0.00,,,0.18,WeatherDisplay:10.37,2013-02-26 20:00:00,
2013-02-26 15:02:00,48.3,39.7,29.55,NW,324,4.6,4.6,72,0.00,,,0.18,WeatherDisplay:10.37,2013-02-26 20:02:00,
2013-02-26 15:04:00,48.1,39.9,29.55,East,84,4.6,4.6,73,0.00,,,0.18,WeatherDisplay:10.37,2013-02-26 20:04:00,
2013-02-26 15:05:00,48.1,39.9,29.55,East,85,3.5,3.5,73,0.00,,,0.18,WeatherDisplay:10.37,2013-02-26 20:05:00,
2013-02-26 15:06:00,48.1,39.5,29.55,East,84,3.5,3.5,72,0.00,,,0.18,WeatherDisplay:10.37,2013-02-26 20:06:00,
2013-02-26 15:07:00,48.1,39.5,29.55,ENE,60,1.1,1.1,72,0.00,,,0.18,WeatherDisplay:10.37,2013-02-26 20:07:00,
2013-02-26 15:10:00,48.1,39.9,29.55,NNE,31,1.0,4.0,73,0.00,,,0.18,WeatherDisplay:10.37,2013-02-26 20:10:00,
2013-02-26 15:11:00,48.1,39.9,29.55,NW,306,4.0,4.0,73,0.00,,,0.18,WeatherDisplay:10.37,2013-02-26 20:11:00,
2013-02-26 15:12:00,48.1,39.9,29.55,WNW,302,3.5,3.5,73,0.00,,,0.18,WeatherDisplay:10.37,2013-02-26 20:12:00,
2013-02-26 15:15:00,48.1,40.2,29.54,NW,309,3.5,3.5,74,0.00,,,0.18,WeatherDisplay:10.37,2013-02-26 20:15:00,
2013-02-26 15:16:00,48.2,40.3,29.55,ENE,75,6.0,6.0,74,0.00,,,0.18,WeatherDisplay:10.37,2013-02-26 20:16:00,
2013-02-26 15:17:00,48.2,39.9,29.55,ESE,110,5.8,5.8,73,0.00,,,0.18,WeatherDisplay:10.37,2013-02-26 20:17:00,
2013-02-26 15:20:00,48.2,39.9,29.55,NW,318,6.9,6.9,73,0.00,,,0.18,WeatherDisplay:10.37,2013-02-26 20:20:00,
2013-02-26 15:22:00,48.2,40.3,29.55,North,11,2.3,2.3,74,0.00,,,0.18,WeatherDisplay:10.37,2013-02-26 20:22:00,
2013-02-26 15:25:00,48.3,40.0,29.55,NNE,26,2.3,2.3,73,0.00,,,0.18,WeatherDisplay:10.37,2013-02-26 20:25:00,
2013-02-26 15:27:00,48.3,40.0,29.55,NNE,26,2.3,2.3,73,0.00,,,0.18,WeatherDisplay:10.37,2013-02-26 20:27:00,
2013-02-26 15:31:00,48.4,40.5,29.55,SSE,148,2.3,2.3,74,0.00,,,0.18,WeatherDisplay:10.37,2013-02-26 20:31:00,
2013-02-26 15:32:00,48.4,40.5,29.55,ESE,108,7.0,7.0,74,0.00,,,0.18,WeatherDisplay:10.37,2013-02-26 20:32:00,
2013-02-26 15:33:00,48.4,40.5,29.55,NE,35,6.9,6.9,74,0.00,,,0.18,WeatherDisplay:10.37,2013-02-26 20:33:00,
2013-02-26 15:36:00,48.5,40.2,29.55,East,80,3.5,3.5,73,0.00,,,0.18,WeatherDisplay:10.37,2013-02-26 20:36:00,
2013-02-26 15:37:00,48.5,40.2,29.55,NE,38,4.0,4.0,73,0.00,,,0.18,WeatherDisplay:10.37,2013-02-26 20:37:00,
2013-02-26 15:38:00,48.5,40.6,29.55,NE,53,4.6,4.6,74,0.00,,,0.18,WeatherDisplay:10.37,2013-02-26 20:38:00,
2013-02-26 15:41:00,48.6,40.3,29.55,East,86,6.9,6.9,73,0.00,,,0.18,WeatherDisplay:10.37,2013-02-26 20:41:00,
2013-02-26 15:42:00,48.5,40.2,29.55,ESE,105,3.5,3.5,73,0.00,,,0.18,WeatherDisplay:10.37,2013-02-26 20:42:00,
2013-02-26 15:43:00,48.6,40.7,29.55,East,99,3.5,3.5,74,0.00,,,0.18,WeatherDisplay:10.37,2013-02-26 20:43:00,
2013-02-26 15:46:00,48.6,40.7,29.55,SE,141,5.0,5.0,74,0.00,,,0.18,WeatherDisplay:10.37,2013-02-26 20:46:00,
2013-02-26 15:48:00,48.5,40.6,29.55,ESE,114,4.6,4.6,74,0.00,,,0.18,WeatherDisplay:10.37,2013-02-26 20:48:00,
2013-02-26 15:51:00,48.4,40.8,29.54,SE,140,5.8,5.8,75,0.00,,,0.18,WeatherDisplay:10.37,2013-02-26 20:51:00,
2013-02-26 15:53:00,48.4,40.8,29.54,SE,144,6.9,6.9,75,0.00,,,0.18,WeatherDisplay:10.37,2013-02-26 20:53:00,
2013-02-26 15:54:00,48.4,40.8,29.54,SE,127,4.6,4.6,75,0.00,,,0.18,WeatherDisplay:10.37,2013-02-26 20:54:00,
2013-02-26 15:56:00,48.4,40.8,29.53,SE,136,10.0,10.0,75,0.00,,,0.18,WeatherDisplay:10.37,2013-02-26 20:56:00,
2013-02-26 15:58:00,48.4,40.8,29.53,East,91,9.0,9.0,75,0.00,,,0.18,WeatherDisplay:10.37,2013-02-26 20:58:00,
2013-02-26 15:59:00,48.4,40.8,29.53,ESE,119,11.5,11.5,75,0.00,,,0.18,WeatherDisplay:10.37,2013-02-26 20:59:00,
2013-02-26 16:01:00,48.6,41.0,29.53,SSE,148,11.5,11.5,75,0.00,,,0.18,WeatherDisplay:10.37,2013-02-26 21:01:00,
2013-02-26 16:04:00,48.8,41.2,29.53,SE,125,9.2,9.2,75,0.00,,,0.18,WeatherDisplay:10.37,2013-02-26 21:04:00,
2013-02-26 16:06:00,49.0,41.4,29.53,ESE,108,6.9,6.9,75,0.00,,,0.18,WeatherDisplay:10.37,2013-02-26 21:06:00,
2013-02-26 16:09:00,49.1,41.2,29.53,ESE,102,8.1,8.1,74,0.00,,,0.18,WeatherDisplay:10.37,2013-02-26 21:09:00,
2013-02-26 16:12:00,49.4,41.5,29.53,East,84,6.9,6.9,74,0.00,,,0.18,WeatherDisplay:10.37,2013-02-26 21:12:00,
2013-02-26 16:14:00,49.5,41.6,29.53,SSW,205,5.8,5.8,74,0.00,,,0.18,WeatherDisplay:10.37,2013-02-26 21:14:00,
2013-02-26 16:17:00,49.7,41.7,29.53,WNW,293,2.3,2.3,74,0.00,,,0.18,WeatherDisplay:10.37,2013-02-26 21:17:00,
2013-02-26 16:19:00,49.7,41.7,29.53,ENE,64,2.3,2.3,74,0.00,,,0.18,WeatherDisplay:10.37,2013-02-26 21:19:00,
2013-02-26 16:20:00,49.7,41.4,29.53,NW,326,3.5,3.5,73,0.00,,,0.18,WeatherDisplay:10.37,2013-02-26 21:20:00,
2013-02-26 16:22:00,49.7,41.4,29.53,NW,318,4.6,4.6,73,0.00,,,0.18,WeatherDisplay:10.37,2013-02-26 21:22:00,
2013-02-26 16:24:00,49.5,41.2,29.53,NNW,328,6.9,6.9,73,0.00,,,0.18,WeatherDisplay:10.37,2013-02-26 21:24:00,
2013-02-26 16:25:00,49.2,40.9,29.53,NW,309,6.9,6.9,73,0.00,,,0.18,WeatherDisplay:10.37,2013-02-26 21:25:00,
2013-02-26 16:27:00,48.6,41.0,29.52,NW,319,8.1,8.1,75,0.00,,,0.18,WeatherDisplay:10.37,2013-02-26 21:27:00,
2013-02-26 16:29:00,48.5,41.6,29.52,NE,44,4.6,4.6,77,0.00,,,0.18,WeatherDisplay:10.37,2013-02-26 21:29:00,
2013-02-26 16:30:00,48.5,41.6,29.52,NE,56,5.0,5.0,77,0.00,,,0.18,WeatherDisplay:10.37,2013-02-26 21:30:00,
2013-02-26 16:33:00,48.9,41.3,29.52,ENE,58,3.5,3.5,75,0.00,,,0.18,WeatherDisplay:10.37,2013-02-26 21:33:00,
2013-02-26 16:34:00,48.9,41.3,29.52,NNE,28,4.6,4.6,75,0.00,,,0.18,WeatherDisplay:10.37,2013-02-26 21:34:00,
2013-02-26 16:35:00,48.9,41.3,29.52,NNW,347,3.5,3.5,75,0.00,,,0.18,WeatherDisplay:10.37,2013-02-26 21:35:00,
2013-02-26 16:39:00,48.2,40.6,29.53,East,87,3.5,3.5,75,0.00,,,0.18,WeatherDisplay:10.37,2013-02-26 21:39:00,
2013-02-26 16:40:00,47.8,40.3,29.53,East,84,8.1,8.1,75,0.00,,,0.18,WeatherDisplay:10.37,2013-02-26 21:40:00,
2013-02-26 16:41:00,47.6,40.1,29.53,NNE,20,6.9,6.9,75,0.00,,,0.18,WeatherDisplay:10.37,2013-02-26 21:41:00,
2013-02-26 16:44:00,46.9,40.1,29.53,ENE,60,6.9,6.9,77,0.00,,,0.18,WeatherDisplay:10.37,2013-02-26 21:44:00,
2013-02-26 16:45:00,46.7,39.9,29.53,NE,39,4.6,4.6,77,0.00,,,0.18,WeatherDisplay:10.37,2013-02-26 21:45:00,
2013-02-26 16:46:00,46.7,39.9,29.53,ENE,57,5.8,5.8,77,0.00,,,0.18,WeatherDisplay:10.37,2013-02-26 21:46:00,
2013-02-26 16:49:00,46.5,40.3,29.53,East,98,4.6,4.6,79,0.00,,,0.18,WeatherDisplay:10.37,2013-02-26 21:49:00,
2013-02-26 16:50:00,46.5,40.3,29.53,SE,124,3.5,3.5,79,0.00,,,0.18,WeatherDisplay:10.37,2013-02-26 21:50:00,
2013-02-26 16:51:00,46.5,40.3,29.53,ESE,122,3.5,3.5,79,0.00,,,0.18,WeatherDisplay:10.37,2013-02-26 21:51:00,
2013-02-26 16:54:00,46.7,40.5,29.52,SE,132,6.0,6.0,79,0.00,,,0.18,WeatherDisplay:10.37,2013-02-26 21:54:00,
2013-02-26 16:55:00,46.7,40.5,29.52,SE,143,8.0,8.0,79,0.00,,,0.18,WeatherDisplay:10.37,2013-02-26 21:55:00,
2013-02-26 16:56:00,46.8,40.6,29.52,East,95,9.2,9.2,79,0.00,,,0.18,WeatherDisplay:10.37,2013-02-26 21:56:00,
2013-02-26 16:59:00,46.9,40.7,29.52,SE,134,9.2,9.2,79,0.00,,,0.18,WeatherDisplay:10.37,2013-02-26 21:59:00,
2013-02-26 17:00:00,47.2,40.7,29.52,SE,136,4.6,4.6,78,0.00,,,0.18,WeatherDisplay:10.37,2013-02-26 22:00:00,
2013-02-26 17:01:00,47.3,41.1,29.52,ESE,109,5.8,5.8,79,0.00,,,0.18,WeatherDisplay:10.37,2013-02-26 22:01:00,
2013-02-26 17:02:00,47.3,41.1,29.51,SE,146,6.9,6.9,79,0.00,,,0.18,WeatherDisplay:10.37,2013-02-26 22:02:00,
2013-02-26 17:04:00,47.7,41.2,29.51,ESE,116,8.1,8.1,78,0.00,,,0.18,WeatherDisplay:10.37,2013-02-26 22:04:00,
2013-02-26 17:06:00,47.8,41.3,29.51,East,96,5.8,5.8,78,0.00,,,0.18,WeatherDisplay:10.37,2013-02-26 22:06:00,
2013-02-26 17:07:00,48.0,41.5,29.51,SSW,200,5.8,5.8,78,0.00,,,0.18,WeatherDisplay:10.37,2013-02-26 22:07:00,
2013-02-26 17:09:00,48.4,41.9,29.51,SSE,148,6.9,6.9,78,0.00,,,0.18,WeatherDisplay:10.37,2013-02-26 22:09:00,
2013-02-26 17:11:00,48.6,41.7,29.52,NNE,16,5.8,5.8,77,0.00,,,0.18,WeatherDisplay:10.37,2013-02-26 22:11:00,
2013-02-26 17:12:00,48.8,41.9,29.52,East,87,4.6,4.6,77,0.00,,,0.18,WeatherDisplay:10.37,2013-02-26 22:12:00,
2013-02-26 17:14:00,48.9,41.7,29.52,SE,146,8.1,8.1,76,0.00,,,0.18,WeatherDisplay:10.37,2013-02-26 22:14:00,
2013-02-26 17:16:00,49.0,41.8,29.52,East,84,4.6,4.6,76,0.00,,,0.18,WeatherDisplay:10.37,2013-02-26 22:16:00,
2013-02-26 17:18:00,49.1,41.9,29.52,East,99,5.8,5.8,76,0.00,,,0.18,WeatherDisplay:10.37,2013-02-26 22:18:00,
2013-02-26 17:20:00,49.0,41.4,29.51,ENE,77,8.0,8.0,75,0.00,,,0.18,WeatherDisplay:10.37,2013-02-26 22:20:00,
2013-02-26 17:21:00,48.9,41.7,29.51,SE,136,8.1,8.1,76,0.00,,,0.18,WeatherDisplay:10.37,2013-02-26 22:21:00,
2013-02-26 17:23:00,48.8,41.2,29.51,SSE,153,9.2,9.2,75,0.00,,,0.18,WeatherDisplay:10.37,2013-02-26 22:23:00,
2013-02-26 17:25:00,48.7,41.5,29.51,East,96,8.1,8.1,76,0.00,,,0.18,WeatherDisplay:10.37,2013-02-26 22:25:00,
2013-02-26 17:26:00,48.7,41.5,29.52,SE,141,8.1,8.1,76,0.00,,,0.18,WeatherDisplay:10.37,2013-02-26 22:26:00,
2013-02-26 17:28:00,48.3,40.7,29.52,ESE,104,9.2,9.2,75,0.00,,,0.18,WeatherDisplay:10.37,2013-02-26 22:28:00,
2013-02-26 17:31:00,47.6,40.4,29.51,ESE,122,6.9,6.9,76,0.00,,,0.18,WeatherDisplay:10.37,2013-02-26 22:31:00,
2013-02-26 17:33:00,46.9,40.1,29.51,ENE,73,5.8,5.8,77,0.00,,,0.18,WeatherDisplay:10.37,2013-02-26 22:33:00,
2013-02-26 17:36:00,46.6,40.1,29.52,East,94,4.6,4.6,78,0.00,,,0.18,WeatherDisplay:10.37,2013-02-26 22:36:00,
2013-02-26 17:38:00,46.5,40.3,29.52,ENE,75,8.1,8.1,79,0.00,,,0.18,WeatherDisplay:10.37,2013-02-26 22:38:00,
2013-02-26 17:41:00,46.3,40.1,29.52,East,91,5.0,5.0,79,0.00,,,0.18,WeatherDisplay:10.37,2013-02-26 22:41:00,
2013-02-26 17:43:00,46.2,40.0,29.52,ENE,58,5.8,5.8,79,0.00,,,0.18,WeatherDisplay:10.37,2013-02-26 22:43:00,
2013-02-26 17:44:00,46.2,40.0,29.52,ESE,110,4.6,4.6,79,0.00,,,0.18,WeatherDisplay:10.37,2013-02-26 22:44:00,
2013-02-26 17:46:00,46.0,39.9,29.52,ESE,113,2.3,2.3,79,0.00,,,0.18,WeatherDisplay:10.37,2013-02-26 22:46:00,
2013-02-26 17:47:00,46.0,40.2,29.52,ENE,73,3.0,3.0,80,0.00,,,0.18,WeatherDisplay:10.37,2013-02-26 22:47:00,
2013-02-26 17:49:00,45.9,40.1,29.52,East,82,4.0,4.0,80,0.00,,,0.18,WeatherDisplay:10.37,2013-02-26 22:49:00,
2013-02-26 17:51:00,45.8,40.0,29.52,East,96,4.0,4.0,80,0.00,,,0.18,WeatherDisplay:10.37,2013-02-26 22:51:00,
2013-02-26 17:52:00,45.8,40.0,29.52,East,101,3.5,3.5,80,0.00,,,0.18,WeatherDisplay:10.37,2013-02-26 22:52:00,
2013-02-26 17:54:00,45.8,40.0,29.52,SE,132,3.5,3.5,80,0.00,,,0.18,WeatherDisplay:10.37,2013-02-26 22:54:00,
2013-02-26 17:56:00,45.7,39.9,29.52,ENE,73,8.0,8.0,80,0.00,,,0.18,WeatherDisplay:10.37,2013-02-26 22:56:00,
2013-02-26 17:57:00,45.6,39.8,29.52,SSE,153,8.1,8.1,80,0.00,,,0.18,WeatherDisplay:10.37,2013-02-26 22:57:00,
2013-02-26 17:59:00,45.2,39.4,29.52,East,87,4.0,4.0,80,0.00,,,0.18,WeatherDisplay:10.37,2013-02-26 22:59:00,
2013-02-26 18:02:00,44.9,39.4,29.52,NE,51,8.1,8.1,81,0.00,,,0.18,WeatherDisplay:10.37,2013-02-26 23:02:00,
2013-02-26 18:04:00,44.6,39.1,29.52,ESE,109,5.8,5.8,81,0.00,,,0.18,WeatherDisplay:10.37,2013-02-26 23:04:00,
2013-02-26 18:05:00,44.6,39.1,29.52,ESE,109,5.8,5.8,81,0.00,,,0.18,WeatherDisplay:10.37,2013-02-26 23:05:00,
2013-02-26 18:07:00,44.3,39.2,29.52,South,170,4.6,4.6,82,0.00,,,0.18,WeatherDisplay:10.37,2013-02-26 23:07:00,
2013-02-26 18:10:00,44.0,38.9,29.53,ESE,115,3.5,3.5,82,0.00,,,0.18,WeatherDisplay:10.37,2013-02-26 23:10:00,
2013-02-26 18:12:00,43.7,38.9,29.52,East,89,4.6,4.6,83,0.00,,,0.18,WeatherDisplay:10.37,2013-02-26 23:12:00,
2013-02-26 18:15:00,43.3,38.5,29.52,ENE,75,4.0,4.0,83,0.00,,,0.18,WeatherDisplay:10.37,2013-02-26 23:15:00,
2013-02-26 18:17:00,43.0,38.2,29.52,East,99,5.8,5.8,83,0.00,,,0.18,WeatherDisplay:10.37,2013-02-26 23:17:00,
2013-02-26 18:20:00,42.8,38.3,29.53,ESE,104,3.5,3.5,84,0.00,,,0.18,WeatherDisplay:10.37,2013-02-26 23:20:00,
2013-02-26 18:22:00,42.5,38.0,29.53,ESE,109,4.6,4.6,84,0.00,,,0.18,WeatherDisplay:10.37,2013-02-26 23:22:00,
2013-02-26 18:24:00,42.4,37.9,29.54,East,99,3.5,3.5,84,0.00,,,0.18,WeatherDisplay:10.37,2013-02-26 23:24:00,
2013-02-26 18:25:00,42.3,37.8,29.54,SSE,160,3.5,3.5,84,0.00,,,0.18,WeatherDisplay:10.37,2013-02-26 23:25:00,
2013-02-26 18:26:00,42.2,37.7,29.54,East,87,3.0,3.0,84,0.00,,,0.18,WeatherDisplay:10.37,2013-02-26 23:26:00,
2013-02-26 18:27:00,42.1,37.6,29.54,East,88,3.5,3.5,84,0.00,,,0.18,WeatherDisplay:10.37,2013-02-26 23:27:00,
2013-02-26 18:29:00,41.9,37.4,29.54,SE,141,1.1,1.1,84,0.00,,,0.18,WeatherDisplay:10.37,2013-02-26 23:29:00,
2013-02-26 18:30:00,41.9,37.7,29.55,East,82,2.3,2.3,85,0.00,,,0.18,WeatherDisplay:10.37,2013-02-26 23:30:00,
2013-02-26 18:31:00,41.8,37.6,29.55,NNE,29,2.3,2.3,85,0.00,,,0.18,WeatherDisplay:10.37,2013-02-26 23:31:00,
2013-02-26 18:32:00,41.7,37.5,29.55,NE,51,3.5,3.5,85,0.00,,,0.18,WeatherDisplay:10.37,2013-02-26 23:32:00,
2013-02-26 18:35:00,41.7,37.5,29.55,NNE,16,0.0,0.0,85,0.00,,,0.18,WeatherDisplay:10.37,2013-02-26 23:35:00,
2013-02-26 18:37:00,41.6,37.4,29.55,ESE,119,1.1,1.1,85,0.00,,,0.18,WeatherDisplay:10.37,2013-02-26 23:37:00,
2013-02-26 18:40:00,41.5,37.3,29.55,East,96,3.5,3.5,85,0.00,,,0.18,WeatherDisplay:10.37,2013-02-26 23:40:00,
2013-02-26 18:42:00,41.4,37.2,29.55,East,96,3.5,3.5,85,0.00,,,0.18,WeatherDisplay:10.37,2013-02-26 23:42:00,
2013-02-26 18:43:00,41.4,37.5,29.55,East,84,3.5,3.5,86,0.00,,,0.18,WeatherDisplay:10.37,2013-02-26 23:43:00,
2013-02-26 18:46:00,41.3,37.4,29.55,ESE,113,3.5,3.5,86,0.00,,,0.18,WeatherDisplay:10.37,2013-02-26 23:46:00,
2013-02-26 18:47:00,41.3,37.4,29.55,SE,127,4.6,4.6,86,0.00,,,0.18,WeatherDisplay:10.37,2013-02-26 23:47:00,
2013-02-26 18:49:00,41.3,37.4,29.56,ENE,78,2.3,2.3,86,0.00,,,0.18,WeatherDisplay:10.37,2013-02-26 23:49:00,
2013-02-26 18:51:00,41.3,37.4,29.56,SE,129,1.1,1.1,86,0.00,,,0.18,WeatherDisplay:10.37,2013-02-26 23:51:00,
2013-02-26 18:53:00,41.3,37.4,29.56,East,92,3.5,3.5,86,0.00,,,0.18,WeatherDisplay:10.37,2013-02-26 23:53:00,
2013-02-26 18:54:00,41.3,37.4,29.56,SE,139,2.3,2.3,86,0.00,,,0.18,WeatherDisplay:10.37,2013-02-26 23:54:00,
2013-02-26 18:56:00,41.2,37.3,29.56,SE,139,0.0,0.0,86,0.00,,,0.18,WeatherDisplay:10.37,2013-02-26 23:56:00,
2013-02-26 18:58:00,41.3,37.7,29.57,SW,234,0.0,0.0,87,0.00,,,0.18,WeatherDisplay:10.37,2013-02-26 23:58:00,
2013-02-26 18:59:00,41.2,37.6,29.57,SW,234,0.0,0.0,87,0.00,,,0.18,WeatherDisplay:10.37,2013-02-26 23:59:00,
2013-02-26 19:01:00,41.3,37.7,29.57,WSW,258,1.1,1.1,87,0.00,,,0.18,WeatherDisplay:10.37,2013-02-27 00:01:00,
2013-02-26 19:02:00,41.3,37.7,29.57,WNW,292,3.0,3.0,87,0.00,,,0.18,WeatherDisplay:10.37,2013-02-27 00:02:00,
2013-02-26 19:03:00,41.3,37.7,29.57,WNW,293,3.5,3.5,87,0.00,,,0.18,WeatherDisplay:10.37,2013-02-27 00:03:00,
2013-02-26 19:04:00,41.3,37.7,29.57,WNW,297,2.3,2.3,87,0.00,,,0.18,WeatherDisplay:10.37,2013-02-27 00:04:00,
2013-02-26 19:06:00,41.4,37.8,29.57,WNW,296,1.1,0.0,87,0.00,,,0.18,WeatherDisplay:10.37,2013-02-27 00:06:00,
2013-02-26 19:07:00,41.4,37.8,29.57,WNW,297,0.0,0.0,87,0.00,,,0.18,WeatherDisplay:10.37,2013-02-27 00:07:00,
2013-02-26 19:08:00,41.4,37.8,29.57,NW,310,1.0,1.0,87,0.00,,,0.18,WeatherDisplay:10.37,2013-02-27 00:08:00,
2013-02-26 19:09:00,41.5,37.9,29.57,East,91,2.3,2.3,87,0.00,,,0.18,WeatherDisplay:10.37,2013-02-27 00:09:00,
2013-02-26 19:11:00,41.6,38.0,29.57,SE,136,3.5,3.5,87,0.00,,,0.18,WeatherDisplay:10.37,2013-02-27 00:11:00,
2013-02-26 19:12:00,41.7,38.1,29.58,ESE,103,3.5,3.5,87,0.00,,,0.18,WeatherDisplay:10.37,2013-02-27 00:12:00,
2013-02-26 19:13:00,41.8,38.2,29.58,ESE,108,2.3,2.3,87,0.00,,,0.18,WeatherDisplay:10.37,2013-02-27 00:13:00,
2013-02-26 19:14:00,41.9,38.0,29.58,SW,215,1.1,1.1,86,0.00,,,0.18,WeatherDisplay:10.37,2013-02-27 00:14:00,
2013-02-26 19:16:00,41.9,38.0,29.58,South,171,2.3,2.3,86,0.00,,,0.18,WeatherDisplay:10.37,2013-02-27 00:16:00,
2013-02-26 19:18:00,42.0,38.1,29.57,SSE,148,2.3,2.3,86,0.00,,,0.18,WeatherDisplay:10.37,2013-02-27 00:18:00,
2013-02-26 19:19:00,42.1,38.2,29.58,WNW,293,2.0,2.0,86,0.00,,,0.18,WeatherDisplay:10.37,2013-02-27 00:19:00,
2013-02-26 19:21:00,42.1,38.2,29.58,West,271,2.3,2.3,86,0.00,,,0.18,WeatherDisplay:10.37,2013-02-27 00:21:00,
2013-02-26 19:23:00,42.1,38.2,29.58,East,91,2.3,2.3,86,0.00,,,0.18,WeatherDisplay:10.37,2013-02-27 00:23:00,
2013-02-26 19:24:00,42.1,38.2,29.58,East,91,2.3,2.3,86,0.00,,,0.18,WeatherDisplay:10.37,2013-02-27 00:24:00,
2013-02-26 19:25:00,42.1,38.5,29.58,East,91,0.0,0.0,87,0.00,,,0.18,WeatherDisplay:10.37,2013-02-27 00:25:00,
2013-02-26 19:26:00,42.2,38.6,29.58,East,91,0.0,0.0,87,0.00,,,0.18,WeatherDisplay:10.37,2013-02-27 00:26:00,
2013-02-26 19:28:00,42.2,38.6,29.59,East,91,0.0,0.0,87,0.00,,,0.18,WeatherDisplay:10.37,2013-02-27 00:28:00,
2013-02-26 19:29:00,42.2,38.6,29.59,East,91,0.0,0.0,87,0.00,,,0.18,WeatherDisplay:10.37,2013-02-27 00:29:00,
2013-02-26 19:30:00,42.2,38.6,29.59,East,91,0.0,0.0,87,0.00,,,0.18,WeatherDisplay:10.37,2013-02-27 00:30:00,
2013-02-26 19:31:00,42.1,38.5,29.59,East,91,0.0,0.0,87,0.00,,,0.18,WeatherDisplay:10.37,2013-02-27 00:31:00,
2013-02-26 19:33:00,42.1,38.5,29.59,East,91,0.0,0.0,87,0.00,,,0.18,WeatherDisplay:10.37,2013-02-27 00:33:00,
2013-02-26 19:34:00,42.1,38.5,29.59,East,91,0.0,0.0,87,0.00,,,0.18,WeatherDisplay:10.37,2013-02-27 00:34:00,
2013-02-26 19:35:00,42.1,38.5,29.59,East,91,0.0,0.0,87,0.00,,,0.18,WeatherDisplay:10.37,2013-02-27 00:35:00,
2013-02-26 19:36:00,42.1,38.5,29.59,East,91,0.0,0.0,87,0.00,,,0.18,WeatherDisplay:10.37,2013-02-27 00:36:00,
2013-02-26 19:38:00,42.1,38.8,29.59,WNW,293,1.1,1.1,88,0.00,,,0.18,WeatherDisplay:10.37,2013-02-27 00:38:00,
2013-02-26 19:39:00,42.1,38.8,29.59,WNW,283,1.1,0.0,88,0.00,,,0.18,WeatherDisplay:10.37,2013-02-27 00:39:00,
2013-02-26 19:40:00,42.1,38.8,29.59,WNW,283,0.0,0.1,88,0.00,,,0.18,WeatherDisplay:10.37,2013-02-27 00:40:00,
2013-02-26 19:42:00,42.0,38.7,29.59,WNW,283,1.1,1.1,88,0.00,,,0.18,WeatherDisplay:10.37,2013-02-27 00:42:00,
2013-02-26 19:43:00,42.0,38.7,29.59,WNW,283,0.0,0.0,88,0.00,,,0.18,WeatherDisplay:10.37,2013-02-27 00:43:00,
2013-02-26 19:44:00,42.0,38.7,29.59,WNW,283,0.0,0.0,88,0.00,,,0.18,WeatherDisplay:10.37,2013-02-27 00:44:00,
2013-02-26 19:45:00,42.0,38.7,29.59,WNW,290,0.0,0.1,88,0.00,,,0.18,WeatherDisplay:10.37,2013-02-27 00:45:00,
2013-02-26 19:47:00,42.0,39.0,29.59,WNW,289,0.0,0.0,89,0.00,,,0.18,WeatherDisplay:10.37,2013-02-27 00:47:00,
2013-02-26 19:48:00,42.0,39.0,29.59,WNW,290,0.0,0.0,89,0.00,,,0.18,WeatherDisplay:10.37,2013-02-27 00:48:00,
2013-02-26 19:50:00,42.0,39.0,29.59,WNW,289,0.0,0.0,89,0.00,,,0.18,WeatherDisplay:10.37,2013-02-27 00:50:00,
2013-02-26 19:51:00,42.0,39.0,29.59,WNW,290,0.0,0.0,89,0.00,,,0.18,WeatherDisplay:10.37,2013-02-27 00:51:00,
2013-02-26 19:52:00,41.9,38.9,29.59,WNW,290,0.0,0.0,89,0.00,,,0.18,WeatherDisplay:10.37,2013-02-27 00:52:00,
2013-02-26 19:54:00,41.9,38.9,29.59,WNW,290,0.0,0.0,89,0.00,,,0.18,WeatherDisplay:10.37,2013-02-27 00:54:00,
2013-02-26 19:55:00,41.9,38.9,29.59,WNW,290,0.0,0.0,89,0.01,RA,,0.19,WeatherDisplay:10.37,2013-02-27 00:55:00,
2013-02-26 19:56:00,41.9,38.9,29.59,WNW,290,0.0,0.0,89,0.01,RA,,0.19,WeatherDisplay:10.37,2013-02-27 00:56:00,
2013-02-26 19:58:00,41.9,38.9,29.59,WNW,290,0.0,0.0,89,0.01,RA,,0.19,WeatherDisplay:10.37,2013-02-27 00:58:00,
2013-02-26 20:00:00,41.9,38.9,29.59,WNW,290,0.0,0.0,89,0.00,RA,,0.19,WeatherDisplay:10.37,2013-02-27 01:00:00,
2013-02-26 20:01:00,41.8,38.8,29.60,WNW,289,0.0,0.0,89,0.01,RA,,0.19,WeatherDisplay:10.37,2013-02-27 01:01:00,
2013-02-26 20:03:00,41.8,38.8,29.60,WNW,289,0.0,0.0,89,0.01,RA,,0.19,WeatherDisplay:10.37,2013-02-27 01:03:00,
2013-02-26 20:05:00,41.8,39.1,29.60,WNW,288,1.0,1.0,90,0.01,RA,,0.19,WeatherDisplay:10.37,2013-02-27 01:05:00,
2013-02-26 20:07:00,41.7,39.0,29.60,West,271,1.1,1.1,90,0.01,,,0.19,WeatherDisplay:10.37,2013-02-27 01:07:00,
2013-02-26 20:08:00,41.7,39.0,29.60,West,275,2.3,2.3,90,0.01,,,0.19,WeatherDisplay:10.37,2013-02-27 01:08:00,
2013-02-26 20:10:00,41.7,39.0,29.60,WNW,290,0.0,2.0,90,0.00,,,0.19,WeatherDisplay:10.37,2013-02-27 01:10:00,
2013-02-26 20:12:00,41.6,38.9,29.60,NW,305,0.0,0.0,90,0.01,,,0.19,WeatherDisplay:10.37,2013-02-27 01:12:00,
2013-02-26 20:13:00,41.6,38.9,29.60,NW,305,0.0,0.0,90,0.01,,,0.19,WeatherDisplay:10.37,2013-02-27 01:13:00,
2013-02-26 20:15:00,41.6,38.9,29.60,NW,305,0.0,0.0,90,0.01,,,0.19,WeatherDisplay:10.37,2013-02-27 01:15:00,
2013-02-26 20:17:00,41.6,38.9,29.61,WSW,257,0.0,0.1,90,0.01,,,0.19,WeatherDisplay:10.37,2013-02-27 01:17:00,
2013-02-26 20:18:00,41.6,38.9,29.60,West,259,1.1,0.0,90,0.01,,,0.19,WeatherDisplay:10.37,2013-02-27 01:18:00,
2013-02-26 20:20:00,41.6,39.2,29.61,WSW,257,1.1,1.1,91,0.01,,,0.19,WeatherDisplay:10.37,2013-02-27 01:20:00,
2013-02-26 20:22:00,41.6,39.2,29.61,NW,307,4.0,4.0,91,0.01,,,0.19,WeatherDisplay:10.37,2013-02-27 01:22:00,
2013-02-26 20:24:00,41.7,39.3,29.61,WNW,282,7.0,7.0,91,0.01,,,0.19,WeatherDisplay:10.37,2013-02-27 01:24:00,
2013-02-26 20:25:00,42.1,39.7,29.61,WSW,253,6.9,6.9,91,0.01,,,0.19,WeatherDisplay:10.37,2013-02-27 01:25:00,
2013-02-26 20:26:00,42.2,39.5,29.61,West,261,8.1,8.1,90,0.01,,,0.19,WeatherDisplay:10.37,2013-02-27 01:26:00,
2013-02-26 20:27:00,42.5,39.8,29.61,SW,231,6.0,6.0,90,0.01,,,0.19,WeatherDisplay:10.37,2013-02-27 01:27:00,
2013-02-26 20:29:00,43.1,39.8,29.61,West,262,6.9,6.9,88,0.01,,,0.19,WeatherDisplay:10.37,2013-02-27 01:29:00,
2013-02-26 20:31:00,43.3,40.0,29.61,West,260,5.8,5.8,88,0.01,,,0.19,WeatherDisplay:10.37,2013-02-27 01:31:00,
2013-02-26 20:32:00,43.6,39.7,29.61,SW,229,9.2,9.2,86,0.01,,,0.19,WeatherDisplay:10.37,2013-02-27 01:32:00,
2013-02-26 20:36:00,44.1,39.9,29.61,West,280,11.5,11.5,85,0.01,,,0.19,WeatherDisplay:10.37,2013-02-27 01:36:00,
2013-02-26 20:37:00,44.2,39.7,29.61,WSW,243,8.1,8.1,84,0.01,,,0.19,WeatherDisplay:10.37,2013-02-27 01:37:00,
2013-02-26 20:41:00,44.6,39.8,29.61,West,277,9.2,9.2,83,0.01,,,0.19,WeatherDisplay:10.37,2013-02-27 01:41:00,
2013-02-26 20:42:00,44.6,39.4,29.61,West,262,4.0,4.0,82,0.01,,,0.19,WeatherDisplay:10.37,2013-02-27 01:42:00,
2013-02-26 20:43:00,44.7,39.5,29.61,WSW,244,4.6,4.6,82,0.01,,,0.19,WeatherDisplay:10.37,2013-02-27 01:43:00,
2013-02-26 20:46:00,44.7,39.5,29.61,WSW,244,6.9,6.9,82,0.01,,,0.19,WeatherDisplay:10.37,2013-02-27 01:46:00,
2013-02-26 20:47:00,44.7,39.5,29.61,WSW,243,7.0,7.0,82,0.01,,,0.19,WeatherDisplay:10.37,2013-02-27 01:47:00,
2013-02-26 20:48:00,44.7,39.2,29.61,WNW,286,9.0,9.0,81,0.01,,,0.19,WeatherDisplay:10.37,2013-02-27 01:48:00,
2013-02-26 20:51:00,44.8,39.3,29.61,WSW,253,4.6,4.6,81,0.01,,,0.19,WeatherDisplay:10.37,2013-02-27 01:51:00,
2013-02-26 20:52:00,44.8,39.6,29.61,WSW,254,2.3,2.3,82,0.01,,,0.19,WeatherDisplay:10.37,2013-02-27 01:52:00,
2013-02-26 20:53:00,44.8,39.6,29.61,WSW,255,3.5,3.5,82,0.01,,,0.19,WeatherDisplay:10.37,2013-02-27 01:53:00,
2013-02-26 20:56:00,44.8,39.6,29.61,West,265,5.8,5.8,82,0.00,,,0.19,WeatherDisplay:10.37,2013-02-27 01:56:00,
2013-02-26 20:57:00,44.7,39.5,29.62,WSW,255,5.8,5.8,82,0.00,,,0.19,WeatherDisplay:10.37,2013-02-27 01:57:00,
2013-02-26 20:58:00,44.7,39.2,29.62,WSW,249,9.2,9.2,81,0.00,,,0.19,WeatherDisplay:10.37,2013-02-27 01:58:00,
2013-02-26 21:01:00,44.7,38.9,29.62,SW,236,6.9,6.9,80,0.00,,,0.19,WeatherDisplay:10.37,2013-02-27 02:01:00,
2013-02-26 21:02:00,44.7,38.9,29.62,WSW,242,8.1,8.1,80,0.00,,,0.19,WeatherDisplay:10.37,2013-02-27 02:02:00,
2013-02-26 21:03:00,44.8,39.0,29.62,WSW,253,9.2,9.2,80,0.00,,,0.19,WeatherDisplay:10.37,2013-02-27 02:03:00,
2013-02-26 21:07:00,44.8,38.4,29.63,West,272,18.4,18.4,78,0.00,,,0.19,WeatherDisplay:10.37,2013-02-27 02:07:00,
2013-02-26 21:08:00,44.8,38.0,29.63,SW,221,15.0,15.0,77,0.00,,,0.19,WeatherDisplay:10.37,2013-02-27 02:08:00,
2013-02-26 21:09:00,44.8,38.0,29.63,WSW,257,15.0,15.0,77,0.00,,,0.19,WeatherDisplay:10.37,2013-02-27 02:09:00,
2013-02-26 21:12:00,44.8,37.7,29.63,WSW,257,12.7,12.7,76,0.00,,,0.19,WeatherDisplay:10.37,2013-02-27 02:12:00,
2013-02-26 21:14:00,44.7,37.3,29.63,WSW,241,9.2,9.2,75,0.00,,,0.19,WeatherDisplay:10.37,2013-02-27 02:14:00,
2013-02-26 21:15:00,44.7,37.3,29.63,West,268,9.2,9.2,75,0.00,,,0.19,WeatherDisplay:10.37,2013-02-27 02:15:00,
2013-02-26 21:17:00,44.7,37.3,29.63,SW,232,11.5,11.5,75,0.00,,,0.19,WeatherDisplay:10.37,2013-02-27 02:17:00,
2013-02-26 21:18:00,44.7,37.3,29.63,SW,232,12.7,12.7,75,0.00,,,0.19,WeatherDisplay:10.37,2013-02-27 02:18:00,
2013-02-26 21:19:00,44.6,37.2,29.64,WSW,239,6.9,6.9,75,0.00,,,0.19,WeatherDisplay:10.37,2013-02-27 02:19:00,
2013-02-26 21:21:00,44.6,37.2,29.63,WSW,244,10.4,10.4,75,0.00,,,0.19,WeatherDisplay:10.37,2013-02-27 02:21:00,
2013-02-26 21:23:00,44.5,37.4,29.63,WSW,239,11.5,11.5,76,0.00,,,0.19,WeatherDisplay:10.37,2013-02-27 02:23:00,
2013-02-26 21:24:00,44.5,37.1,29.64,West,260,9.2,9.2,75,0.00,,,0.19,WeatherDisplay:10.37,2013-02-27 02:24:00,
2013-02-26 21:25:00,44.5,37.1,29.64,WSW,256,9.2,9.2,75,0.00,,,0.19,WeatherDisplay:10.37,2013-02-27 02:25:00,
2013-02-26 21:26:00,44.5,37.1,29.64,West,275,11.5,11.5,75,0.00,,,0.19,WeatherDisplay:10.37,2013-02-27 02:26:00,
2013-02-26 21:28:00,44.4,37.0,29.64,West,260,12.0,12.0,75,0.00,,,0.19,WeatherDisplay:10.37,2013-02-27 02:28:00,
2013-02-26 21:29:00,44.4,36.6,29.64,West,281,16.1,16.1,74,0.00,,,0.19,WeatherDisplay:10.37,2013-02-27 02:29:00,
2013-02-26 21:30:00,44.4,37.0,29.64,West,265,11.5,11.5,75,0.00,,,0.19,WeatherDisplay:10.37,2013-02-27 02:30:00,
2013-02-26 21:31:00,44.4,37.0,29.64,WSW,246,12.7,12.7,75,0.00,,,0.19,WeatherDisplay:10.37,2013-02-27 02:31:00,
2013-02-26 21:33:00,44.4,37.0,29.64,SW,234,5.8,5.8,75,0.00,,,0.19,WeatherDisplay:10.37,2013-02-27 02:33:00,
2013-02-26 21:35:00,44.4,36.6,29.65,WSW,256,11.5,11.5,74,0.00,,,0.19,WeatherDisplay:10.37,2013-02-27 02:35:00,
2013-02-26 21:36:00,44.4,37.0,29.65,West,272,9.2,9.2,75,0.00,,,0.19,WeatherDisplay:10.37,2013-02-27 02:36:00,
2013-02-26 21:38:00,44.3,36.9,29.65,WSW,257,8.1,8.1,75,0.00,,,0.19,WeatherDisplay:10.37,2013-02-27 02:38:00,
2013-02-26 21:41:00,44.3,36.5,29.65,West,269,11.5,11.5,74,0.00,,,0.19,WeatherDisplay:10.37,2013-02-27 02:41:00,
2013-02-26 21:44:00,44.2,36.4,29.65,SW,236,11.5,11.5,74,0.00,,,0.19,WeatherDisplay:10.37,2013-02-27 02:44:00,
2013-02-26 21:46:00,44.2,36.4,29.65,WSW,252,9.2,9.2,74,0.00,,,0.19,WeatherDisplay:10.37,2013-02-27 02:46:00,
2013-02-26 21:50:00,44.1,36.3,29.65,WSW,256,9.2,9.2,74,0.00,,,0.19,WeatherDisplay:10.37,2013-02-27 02:50:00,
2013-02-26 21:51:00,44.1,36.0,29.65,West,274,12.7,12.7,73,0.00,,,0.19,WeatherDisplay:10.37,2013-02-27 02:51:00,
2013-02-26 21:55:00,44.0,36.2,29.65,SW,234,12.7,12.7,74,0.00,,,0.19,WeatherDisplay:10.37,2013-02-27 02:55:00,
2013-02-26 21:56:00,44.0,36.2,29.65,WSW,241,13.8,13.8,74,0.00,,,0.19,WeatherDisplay:10.37,2013-02-27 02:56:00,
2013-02-26 22:00:00,44.0,35.9,29.65,WSW,252,9.2,9.2,73,0.00,,,0.19,WeatherDisplay:10.37,2013-02-27 03:00:00,
2013-02-26 22:01:00,44.0,36.2,29.65,West,264,5.8,5.8,74,0.00,,,0.19,WeatherDisplay:10.37,2013-02-27 03:01:00,
2013-02-26 22:02:00,44.0,36.2,29.65,SW,224,6.0,6.0,74,0.00,,,0.19,WeatherDisplay:10.37,2013-02-27 03:02:00,
2013-02-26 22:05:00,43.9,35.8,29.65,WNW,286,9.2,9.2,73,0.00,,,0.19,WeatherDisplay:10.37,2013-02-27 03:05:00,
2013-02-26 22:06:00,43.9,35.8,29.65,WSW,254,9.0,9.0,73,0.00,,,0.19,WeatherDisplay:10.37,2013-02-27 03:06:00,
2013-02-26 22:07:00,43.9,35.8,29.65,WSW,247,11.5,11.5,73,0.00,,,0.19,WeatherDisplay:10.37,2013-02-27 03:07:00,
2013-02-26 22:10:00,43.9,35.8,29.65,WSW,243,4.0,4.0,73,0.00,,,0.19,WeatherDisplay:10.37,2013-02-27 03:10:00,
2013-02-26 22:11:00,43.8,35.7,29.65,WSW,244,6.9,6.9,73,0.00,,,0.19,WeatherDisplay:10.37,2013-02-27 03:11:00,
2013-02-26 22:12:00,43.8,35.7,29.65,WSW,253,8.1,8.1,73,0.00,,,0.19,WeatherDisplay:10.37,2013-02-27 03:12:00,
2013-02-26 22:15:00,43.8,35.7,29.65,West,265,11.5,11.5,73,0.00,,,0.19,WeatherDisplay:10.37,2013-02-27 03:15:00,
2013-02-26 22:16:00,43.8,35.7,29.65,WSW,254,6.9,6.9,73,0.00,,,0.19,WeatherDisplay:10.37,2013-02-27 03:16:00,
2013-02-26 22:17:00,43.7,35.6,29.65,WSW,246,7.0,7.0,73,0.00,,,0.19,WeatherDisplay:10.37,2013-02-27 03:17:00,
2013-02-26 22:20:00,43.8,35.7,29.65,WSW,251,10.4,10.4,73,0.00,,,0.19,WeatherDisplay:10.37,2013-02-27 03:20:00,
2013-02-26 22:21:00,43.7,35.6,29.65,WSW,245,8.1,8.1,73,0.00,,,0.19,WeatherDisplay:10.37,2013-02-27 03:21:00,
2013-02-26 22:22:00,43.7,35.6,29.65,SW,222,10.4,10.4,73,0.00,,,0.19,WeatherDisplay:10.37,2013-02-27 03:22:00,
2013-02-26 22:23:00,43.7,35.6,29.65,WSW,249,10.4,10.4,73,0.00,,,0.19,WeatherDisplay:10.37,2013-02-27 03:23:00,
2013-02-26 22:26:00,43.7,36.0,29.65,WNW,299,8.1,8.1,74,0.00,,,0.19,WeatherDisplay:10.37,2013-02-27 03:26:00,
2013-02-26 22:27:00,43.7,36.0,29.65,SW,231,8.1,8.1,74,0.00,,,0.19,WeatherDisplay:10.37,2013-02-27 03:27:00,
2013-02-26 22:28:00,43.6,35.9,29.65,WSW,237,9.2,9.2,74,0.00,,,0.19,WeatherDisplay:10.37,2013-02-27 03:28:00,
2013-02-26 22:31:00,43.6,35.5,29.65,SW,236,8.1,8.1,73,0.00,,,0.19,WeatherDisplay:10.37,2013-02-27 03:31:00,
2013-02-26 22:32:00,43.6,35.5,29.65,SW,226,9.2,9.2,73,0.00,,,0.19,WeatherDisplay:10.37,2013-02-27 03:32:00,
2013-02-26 22:33:00,43.6,35.5,29.65,WNW,286,9.2,9.2,73,0.00,,,0.19,WeatherDisplay:10.37,2013-02-27 03:33:00,
2013-02-26 22:37:00,43.6,35.5,29.65,West,268,9.2,9.2,73,0.00,,,0.19,WeatherDisplay:10.37,2013-02-27 03:37:00,
2013-02-26 22:38:00,43.6,35.5,29.65,WSW,248,8.1,8.1,73,0.00,,,0.19,WeatherDisplay:10.37,2013-02-27 03:38:00,
2013-02-26 22:42:00,43.5,35.8,29.65,SW,225,4.0,4.0,74,0.00,,,0.19,WeatherDisplay:10.37,2013-02-27 03:42:00,
2013-02-26 22:43:00,43.5,35.4,29.65,WSW,243,6.9,6.9,73,0.00,,,0.19,WeatherDisplay:10.37,2013-02-27 03:43:00,
2013-02-26 22:47:00,43.5,35.4,29.65,West,271,5.8,5.8,73,0.00,,,0.19,WeatherDisplay:10.37,2013-02-27 03:47:00,
2013-02-26 22:48:00,43.5,35.4,29.65,WSW,250,3.5,3.5,73,0.00,,,0.19,WeatherDisplay:10.37,2013-02-27 03:48:00,
2013-02-26 22:52:00,43.4,35.3,29.65,West,279,8.1,8.1,73,0.00,,,0.19,WeatherDisplay:10.37,2013-02-27 03:52:00,
2013-02-26 22:53:00,43.4,35.3,29.65,WSW,258,10.4,10.4,73,0.00,,,0.19,WeatherDisplay:10.37,2013-02-27 03:53:00,
2013-02-26 22:57:00,43.3,35.6,29.65,WSW,249,3.5,3.5,74,0.00,,,0.19,WeatherDisplay:10.37,2013-02-27 03:57:00,
2013-02-26 22:58:00,43.3,35.6,29.65,West,262,4.6,4.6,74,0.00,,,0.19,WeatherDisplay:10.37,2013-02-27 03:58:00,
2013-02-26 22:59:00,43.3,35.6,29.65,NW,316,5.8,5.8,74,0.00,,,0.19,WeatherDisplay:10.37,2013-02-27 03:59:00,
2013-02-26 23:02:00,43.2,35.5,29.65,WSW,252,4.6,4.6,74,0.00,,,0.19,WeatherDisplay:10.37,2013-02-27 04:02:00,
2013-02-26 23:03:00,43.2,35.5,29.65,WSW,253,4.6,4.6,74,0.00,,,0.19,WeatherDisplay:10.37,2013-02-27 04:03:00,
2013-02-26 23:04:00,43.2,35.5,29.65,SW,235,10.0,10.0,74,0.00,,,0.19,WeatherDisplay:10.37,2013-02-27 04:04:00,
2013-02-26 23:08:00,43.1,35.4,29.65,WSW,254,9.2,9.2,74,0.00,,,0.19,WeatherDisplay:10.37,2013-02-27 04:08:00,
2013-02-26 23:09:00,43.1,35.7,29.65,WSW,255,11.5,11.5,75,0.00,,,0.19,WeatherDisplay:10.37,2013-02-27 04:09:00,
2013-02-26 23:10:00,43.0,35.6,29.65,WSW,254,6.9,6.9,75,0.00,,,0.19,WeatherDisplay:10.37,2013-02-27 04:10:00,
2013-02-26 23:13:00,42.8,36.1,29.65,WSW,256,4.6,4.6,77,0.00,,,0.19,WeatherDisplay:10.37,2013-02-27 04:13:00,
2013-02-26 23:14:00,42.7,36.0,29.65,West,259,6.0,6.0,77,0.00,,,0.19,WeatherDisplay:10.37,2013-02-27 04:14:00,
2013-02-26 23:15:00,42.6,35.9,29.65,WSW,241,7.0,7.0,77,0.00,,,0.19,WeatherDisplay:10.37,2013-02-27 04:15:00,
2013-02-26 23:18:00,42.4,36.0,29.65,WSW,257,3.5,3.5,78,0.00,,,0.19,WeatherDisplay:10.37,2013-02-27 04:18:00,
2013-02-26 23:19:00,42.4,36.0,29.65,West,262,3.5,3.5,78,0.00,,,0.19,WeatherDisplay:10.37,2013-02-27 04:19:00,
2013-02-26 23:20:00,42.4,36.0,29.65,WSW,248,1.0,10.0,78,0.00,,,0.19,WeatherDisplay:10.37,2013-02-27 04:20:00,
2013-02-26 23:23:00,42.2,35.8,29.65,West,270,3.5,3.5,78,0.00,,,0.19,WeatherDisplay:10.37,2013-02-27 04:23:00,
2013-02-26 23:24:00,42.1,35.7,29.65,WSW,257,4.6,4.6,78,0.00,,,0.19,WeatherDisplay:10.37,2013-02-27 04:24:00,
2013-02-26 23:25:00,42.1,35.7,29.65,WSW,253,5.0,5.0,78,0.00,,,0.19,WeatherDisplay:10.37,2013-02-27 04:25:00,
2013-02-26 23:26:00,42.1,35.7,29.65,WSW,248,4.6,4.6,78,0.00,,,0.19,WeatherDisplay:10.37,2013-02-27 04:26:00,
2013-02-26 23:28:00,42.0,36.0,29.65,WSW,237,6.0,6.0,79,0.00,,,0.19,WeatherDisplay:10.37,2013-02-27 04:28:00,
2013-02-26 23:29:00,42.0,35.6,29.65,WSW,257,6.0,6.0,78,0.00,,,0.19,WeatherDisplay:10.37,2013-02-27 04:29:00,
2013-02-26 23:30:00,41.9,35.5,29.65,WSW,253,6.9,6.9,78,0.00,,,0.19,WeatherDisplay:10.37,2013-02-27 04:30:00,
2013-02-26 23:31:00,41.9,35.5,29.65,WSW,245,6.9,6.9,78,0.00,,,0.19,WeatherDisplay:10.37,2013-02-27 04:31:00,
2013-02-26 23:33:00,41.9,35.5,29.65,SW,227,6.9,6.9,78,0.00,,,0.19,WeatherDisplay:10.37,2013-02-27 04:33:00,
2013-02-26 23:34:00,41.9,35.5,29.65,WSW,257,6.9,6.9,78,0.00,,,0.19,WeatherDisplay:10.37,2013-02-27 04:34:00,
2013-02-26 23:35:00,41.9,35.5,29.65,SW,229,4.6,4.6,78,0.00,,,0.19,WeatherDisplay:10.37,2013-02-27 04:35:00,
2013-02-26 23:36:00,41.9,35.9,29.65,WSW,253,3.5,3.5,79,0.00,,,0.19,WeatherDisplay:10.37,2013-02-27 04:36:00,
2013-02-26 23:39:00,41.9,35.5,29.65,WSW,243,8.0,8.0,78,0.00,,,0.19,WeatherDisplay:10.37,2013-02-27 04:39:00,
2013-02-26 23:40:00,41.9,35.5,29.65,WSW,250,8.1,8.1,78,0.00,,,0.19,WeatherDisplay:10.37,2013-02-27 04:40:00,
2013-02-26 23:41:00,41.9,35.2,29.65,WSW,242,8.1,8.1,77,0.00,,,0.19,WeatherDisplay:10.37,2013-02-27 04:41:00,
2013-02-26 23:44:00,42.0,35.0,29.65,West,264,11.5,11.5,76,0.00,,,0.19,WeatherDisplay:10.37,2013-02-27 04:44:00,
2013-02-26 23:45:00,42.0,35.0,29.64,SW,227,11.5,11.5,76,0.00,,,0.19,WeatherDisplay:10.37,2013-02-27 04:45:00,
2013-02-26 23:47:00,42.0,35.0,29.65,WSW,238,11.5,11.5,76,0.00,,,0.19,WeatherDisplay:10.37,2013-02-27 04:47:00,
2013-02-26 23:49:00,42.0,34.6,29.65,WNW,289,9.0,9.0,75,0.00,,,0.19,WeatherDisplay:10.37,2013-02-27 04:49:00,
2013-02-26 23:50:00,42.0,34.6,29.65,WSW,250,8.1,8.1,75,0.00,,,0.19,WeatherDisplay:10.37,2013-02-27 04:50:00,
2013-02-26 23:52:00,42.0,34.6,29.65,WSW,248,11.5,11.5,75,0.00,,,0.19,WeatherDisplay:10.37,2013-02-27 04:52:00,
2013-02-26 23:55:00,42.0,34.3,29.65,West,281,19.6,19.6,74,0.00,,,0.19,WeatherDisplay:10.37,2013-02-27 04:55:00,
2013-02-26 23:56:00,42.0,34.6,29.65,West,260,8.1,8.1,75,0.00,,,0.19,WeatherDisplay:10.37,2013-02-27 04:56:00,
2013-02-26 23:57:00,42.0,34.6,29.65,WSW,247,6.0,6.0,75,0.00,,,0.19,WeatherDisplay:10.37,2013-02-27 04:57:00,